<?xml version="1.0" encoding="UTF-8" standalone="no" ?>
<gpx xmlns="http://www.topografix.com/GPX/1/1" xmlns:xsi="http://www.w3.org/2001/XMLSchema-instance" xsi:schemaLocation="http://www.topografix.com/GPX/1/1 http://www.topografix.com/GPX/1/1/gpx.xsd" version="1.1" creator="VisuGPX - https://www.visugpx.com">
  <metadata>
    <name>40km Sortie découverte Les Andelys</name>
  </metadata>
  <trk>
    <name><![CDATA[40km Sortie découverte Les Andelys]]></name>
    <trkseg>
      <trkpt lat="49.25372" lon="1.44538">
        <ele>123.68175506592</ele>
        <time>2019-05-30T22:15:20.000Z</time>
      </trkpt>
      <trkpt lat="49.25362" lon="1.44511">
        <ele>124.20745849609</ele>
        <time>2019-05-30T22:15:20.004Z</time>
      </trkpt>
      <trkpt lat="49.25352" lon="1.44513">
        <ele>122.76770019531</ele>
        <time>2019-05-30T22:15:20.010Z</time>
      </trkpt>
      <trkpt lat="49.25331" lon="1.44526">
        <ele>119.21629333496</ele>
        <time>2019-05-30T22:15:20.021Z</time>
      </trkpt>
      <trkpt lat="49.25325" lon="1.44526">
        <ele>118.42442321777</ele>
        <time>2019-05-30T22:15:20.033Z</time>
      </trkpt>
      <trkpt lat="49.25293" lon="1.44497">
        <ele>115.88158416748</ele>
        <time>2019-05-30T22:15:20.052Z</time>
      </trkpt>
      <trkpt lat="49.25275" lon="1.44491">
        <ele>113.2057723999</ele>
        <time>2019-05-30T22:15:20.075Z</time>
      </trkpt>
      <trkpt lat="49.25257" lon="1.4448">
        <ele>111.61756896973</ele>
        <time>2019-05-30T22:15:20.102Z</time>
      </trkpt>
      <trkpt lat="49.25207" lon="1.44439">
        <ele>105.29462432861</ele>
        <time>2019-05-30T22:15:20.140Z</time>
      </trkpt>
      <trkpt lat="49.25198" lon="1.44426">
        <ele>104.35877990723</ele>
        <time>2019-05-30T22:15:20.181Z</time>
      </trkpt>
      <trkpt lat="49.25185" lon="1.44394">
        <ele>101.88003540039</ele>
        <time>2019-05-30T22:15:20.227Z</time>
      </trkpt>
      <trkpt lat="49.25177" lon="1.4437">
        <ele>98.860778808594</ele>
        <time>2019-05-30T22:15:20.276Z</time>
      </trkpt>
      <trkpt lat="49.25172" lon="1.44334">
        <ele>96.557167053223</ele>
        <time>2019-05-30T22:15:20.330Z</time>
      </trkpt>
      <trkpt lat="49.25173" lon="1.4429">
        <ele>95.446670532227</ele>
        <time>2019-05-30T22:15:20.390Z</time>
      </trkpt>
      <trkpt lat="49.2518" lon="1.44226">
        <ele>94.306861877441</ele>
        <time>2019-05-30T22:15:20.458Z</time>
      </trkpt>
      <trkpt lat="49.25211" lon="1.4414">
        <ele>97.915321350098</ele>
        <time>2019-05-30T22:15:20.539Z</time>
      </trkpt>
      <trkpt lat="49.25238" lon="1.44055">
        <ele>101.73890686035</ele>
        <time>2019-05-30T22:15:20.632Z</time>
      </trkpt>
      <trkpt lat="49.25265" lon="1.43986">
        <ele>107.03002929688</ele>
        <time>2019-05-30T22:15:20.736Z</time>
      </trkpt>
      <trkpt lat="49.25296" lon="1.43893">
        <ele>113.67582702637</ele>
        <time>2019-05-30T22:15:20.854Z</time>
      </trkpt>
      <trkpt lat="49.25304" lon="1.43861">
        <ele>114.73165130615</ele>
        <time>2019-05-30T22:15:20.976Z</time>
      </trkpt>
      <trkpt lat="49.25318" lon="1.43724">
        <ele>119.72741699219</ele>
        <time>2019-05-30T22:15:21.116Z</time>
      </trkpt>
      <trkpt lat="49.25322" lon="1.43663">
        <ele>123.75382995605</ele>
        <time>2019-05-30T22:15:21.264Z</time>
      </trkpt>
      <trkpt lat="49.2532" lon="1.43622">
        <ele>123.77965545654</ele>
        <time>2019-05-30T22:15:21.418Z</time>
      </trkpt>
      <trkpt lat="49.25299" lon="1.43567">
        <ele>119.18099975586</ele>
        <time>2019-05-30T22:15:21.580Z</time>
      </trkpt>
      <trkpt lat="49.25283" lon="1.43497">
        <ele>117.46051025391</ele>
        <time>2019-05-30T22:15:21.752Z</time>
      </trkpt>
      <trkpt lat="49.25244" lon="1.43431">
        <ele>109.19499969482</ele>
        <time>2019-05-30T22:15:21.935Z</time>
      </trkpt>
      <trkpt lat="49.25216" lon="1.43371">
        <ele>105.30764770508</ele>
        <time>2019-05-30T22:15:22.128Z</time>
      </trkpt>
      <trkpt lat="49.25206" lon="1.43355">
        <ele>103.2679901123</ele>
        <time>2019-05-30T22:15:22.324Z</time>
      </trkpt>
      <trkpt lat="49.25206" lon="1.43351">
        <ele>103.7479095459</ele>
        <time>2019-05-30T22:15:22.521Z</time>
      </trkpt>
      <trkpt lat="49.25209" lon="1.43348">
        <ele>105.29564666748</ele>
        <time>2019-05-30T22:15:22.718Z</time>
      </trkpt>
      <trkpt lat="49.25187" lon="1.43326">
        <ele>99.651664733887</ele>
        <time>2019-05-30T22:15:22.921Z</time>
      </trkpt>
      <trkpt lat="49.25158" lon="1.43275">
        <ele>93.765701293945</ele>
        <time>2019-05-30T22:15:23.132Z</time>
      </trkpt>
      <trkpt lat="49.25088" lon="1.43107">
        <ele>81.471794128418</ele>
        <time>2019-05-30T22:15:23.369Z</time>
      </trkpt>
      <trkpt lat="49.25069" lon="1.4307">
        <ele>77.524452209473</ele>
        <time>2019-05-30T22:15:23.613Z</time>
      </trkpt>
      <trkpt lat="49.25053" lon="1.43046">
        <ele>73.450912475586</ele>
        <time>2019-05-30T22:15:23.861Z</time>
      </trkpt>
      <trkpt lat="49.25035" lon="1.43009">
        <ele>69.407585144043</ele>
        <time>2019-05-30T22:15:24.115Z</time>
      </trkpt>
      <trkpt lat="49.24987" lon="1.4287">
        <ele>55.994773864746</ele>
        <time>2019-05-30T22:15:24.390Z</time>
      </trkpt>
      <trkpt lat="49.2498" lon="1.42836">
        <ele>53.716785430908</ele>
        <time>2019-05-30T22:15:24.669Z</time>
      </trkpt>
      <trkpt lat="49.24947" lon="1.42735">
        <ele>47.212219238281</ele>
        <time>2019-05-30T22:15:24.963Z</time>
      </trkpt>
      <trkpt lat="49.24932" lon="1.42712">
        <ele>44.641242980957</ele>
        <time>2019-05-30T22:15:25.262Z</time>
      </trkpt>
      <trkpt lat="49.24904" lon="1.42693">
        <ele>38.932327270508</ele>
        <time>2019-05-30T22:15:25.567Z</time>
      </trkpt>
      <trkpt lat="49.24892" lon="1.42675">
        <ele>36.818546295166</ele>
        <time>2019-05-30T22:15:25.875Z</time>
      </trkpt>
      <trkpt lat="49.24828" lon="1.42524">
        <ele>30.012941360474</ele>
        <time>2019-05-30T22:15:26.207Z</time>
      </trkpt>
      <trkpt lat="49.2482" lon="1.42498">
        <ele>29.748985290527</ele>
        <time>2019-05-30T22:15:26.542Z</time>
      </trkpt>
      <trkpt lat="49.24832" lon="1.42369">
        <ele>32.785331726074</ele>
        <time>2019-05-30T22:15:26.894Z</time>
      </trkpt>
      <trkpt lat="49.2483" lon="1.42298">
        <ele>32.868465423584</ele>
        <time>2019-05-30T22:15:27.256Z</time>
      </trkpt>
      <trkpt lat="49.24835" lon="1.42223">
        <ele>32.354190826416</ele>
        <time>2019-05-30T22:15:27.628Z</time>
      </trkpt>
      <trkpt lat="49.24839" lon="1.42103">
        <ele>30.195255279541</ele>
        <time>2019-05-30T22:15:28.015Z</time>
      </trkpt>
      <trkpt lat="49.24842" lon="1.41919">
        <ele>29.783452987671</ele>
        <time>2019-05-30T22:15:28.426Z</time>
      </trkpt>
      <trkpt lat="49.2485" lon="1.4183">
        <ele>30.499225616455</ele>
        <time>2019-05-30T22:15:28.849Z</time>
      </trkpt>
      <trkpt lat="49.2486" lon="1.41781">
        <ele>30.524251937866</ele>
        <time>2019-05-30T22:15:29.279Z</time>
      </trkpt>
      <trkpt lat="49.24881" lon="1.41638">
        <ele>31.309841156006</ele>
        <time>2019-05-30T22:15:29.728Z</time>
      </trkpt>
      <trkpt lat="49.24904" lon="1.41542">
        <ele>31.694595336914</ele>
        <time>2019-05-30T22:15:30.191Z</time>
      </trkpt>
      <trkpt lat="49.24899" lon="1.41491">
        <ele>27.731611251831</ele>
        <time>2019-05-30T22:15:30.660Z</time>
      </trkpt>
      <trkpt lat="49.24898" lon="1.41442">
        <ele>25.266370773315</ele>
        <time>2019-05-30T22:15:31.136Z</time>
      </trkpt>
      <trkpt lat="49.24905" lon="1.41388">
        <ele>22.509813308716</ele>
        <time>2019-05-30T22:15:31.619Z</time>
      </trkpt>
      <trkpt lat="49.2491" lon="1.41319">
        <ele>22.569803237915</ele>
        <time>2019-05-30T22:15:32.111Z</time>
      </trkpt>
      <trkpt lat="49.24914" lon="1.41299">
        <ele>22.617794036865</ele>
        <time>2019-05-30T22:15:32.606Z</time>
      </trkpt>
      <trkpt lat="49.24916" lon="1.41231">
        <ele>23.325805664062</ele>
        <time>2019-05-30T22:15:33.110Z</time>
      </trkpt>
      <trkpt lat="49.24914" lon="1.41205">
        <ele>24.525606155396</ele>
        <time>2019-05-30T22:15:33.617Z</time>
      </trkpt>
      <trkpt lat="49.24909" lon="1.41179">
        <ele>26.614702224731</ele>
        <time>2019-05-30T22:15:34.128Z</time>
      </trkpt>
      <trkpt lat="49.24898" lon="1.41159">
        <ele>27.850496292114</ele>
        <time>2019-05-30T22:15:34.642Z</time>
      </trkpt>
      <trkpt lat="49.24857" lon="1.41146">
        <ele>26.014429092407</ele>
        <time>2019-05-30T22:15:35.165Z</time>
      </trkpt>
      <trkpt lat="49.24875" lon="1.41151">
        <ele>26.782674789429</ele>
        <time>2019-05-30T22:15:35.691Z</time>
      </trkpt>
      <trkpt lat="49.24877" lon="1.41149">
        <ele>27.166610717773</ele>
        <time>2019-05-30T22:15:36.218Z</time>
      </trkpt>
      <trkpt lat="49.24873" lon="1.41139">
        <ele>29.16858291626</ele>
        <time>2019-05-30T22:15:36.746Z</time>
      </trkpt>
      <trkpt lat="49.24839" lon="1.41118">
        <ele>28.813718795776</ele>
        <time>2019-05-30T22:15:37.282Z</time>
      </trkpt>
      <trkpt lat="49.24825" lon="1.41105">
        <ele>29.24564743042</ele>
        <time>2019-05-30T22:15:37.821Z</time>
      </trkpt>
      <trkpt lat="49.24809" lon="1.41085">
        <ele>30.973360061646</ele>
        <time>2019-05-30T22:15:38.364Z</time>
      </trkpt>
      <trkpt lat="49.24795" lon="1.41079">
        <ele>29.725566864014</ele>
        <time>2019-05-30T22:15:38.910Z</time>
      </trkpt>
      <trkpt lat="49.2479" lon="1.41074">
        <ele>29.965526580811</ele>
        <time>2019-05-30T22:15:39.457Z</time>
      </trkpt>
      <trkpt lat="49.24765" lon="1.41032">
        <ele>30.525091171265</ele>
        <time>2019-05-30T22:15:40.012Z</time>
      </trkpt>
      <trkpt lat="49.24756" lon="1.41013">
        <ele>30.633071899414</ele>
        <time>2019-05-30T22:15:40.570Z</time>
      </trkpt>
      <trkpt lat="49.24751" lon="1.40995">
        <ele>31.496929168701</ele>
        <time>2019-05-30T22:15:41.130Z</time>
      </trkpt>
      <trkpt lat="49.24732" lon="1.40908">
        <ele>32.187019348145</ele>
        <time>2019-05-30T22:15:41.702Z</time>
      </trkpt>
      <trkpt lat="49.24725" lon="1.40865">
        <ele>31.455791473389</ele>
        <time>2019-05-30T22:15:42.280Z</time>
      </trkpt>
      <trkpt lat="49.24727" lon="1.40853">
        <ele>32.151676177979</ele>
        <time>2019-05-30T22:15:42.860Z</time>
      </trkpt>
      <trkpt lat="49.2473" lon="1.40853">
        <ele>32.979537963867</ele>
        <time>2019-05-30T22:15:43.440Z</time>
      </trkpt>
      <trkpt lat="49.24727" lon="1.40859">
        <ele>32.079689025879</ele>
        <time>2019-05-30T22:15:44.021Z</time>
      </trkpt>
      <trkpt lat="49.24727" lon="1.4088">
        <ele>31.827730178833</ele>
        <time>2019-05-30T22:15:44.605Z</time>
      </trkpt>
      <trkpt lat="49.24744" lon="1.40975">
        <ele>31.570508956909</ele>
        <time>2019-05-30T22:15:45.202Z</time>
      </trkpt>
      <trkpt lat="49.24753" lon="1.41008">
        <ele>30.525091171265</ele>
        <time>2019-05-30T22:15:45.804Z</time>
      </trkpt>
      <trkpt lat="49.24771" lon="1.4105">
        <ele>29.877199172974</ele>
        <time>2019-05-30T22:15:46.412Z</time>
      </trkpt>
      <trkpt lat="49.2479" lon="1.41078">
        <ele>29.31388092041</ele>
        <time>2019-05-30T22:15:47.025Z</time>
      </trkpt>
      <trkpt lat="49.24827" lon="1.41113">
        <ele>27.709903717041</ele>
        <time>2019-05-30T22:15:47.647Z</time>
      </trkpt>
      <trkpt lat="49.24872" lon="1.41142">
        <ele>28.364717483521</ele>
        <time>2019-05-30T22:15:48.279Z</time>
      </trkpt>
      <trkpt lat="49.24879" lon="1.41149">
        <ele>27.334583282471</ele>
        <time>2019-05-30T22:15:48.913Z</time>
      </trkpt>
      <trkpt lat="49.24875" lon="1.41152">
        <ele>26.674692153931</ele>
        <time>2019-05-30T22:15:49.547Z</time>
      </trkpt>
      <trkpt lat="49.2487" lon="1.41152">
        <ele>26.254762649536</ele>
        <time>2019-05-30T22:15:50.182Z</time>
      </trkpt>
      <trkpt lat="49.24791" lon="1.41132">
        <ele>24.814630508423</ele>
        <time>2019-05-30T22:15:50.833Z</time>
      </trkpt>
      <trkpt lat="49.24773" lon="1.41135">
        <ele>23.397315979004</ele>
        <time>2019-05-30T22:15:51.488Z</time>
      </trkpt>
      <trkpt lat="49.24764" lon="1.41144">
        <ele>22.45428276062</ele>
        <time>2019-05-30T22:15:52.145Z</time>
      </trkpt>
      <trkpt lat="49.24749" lon="1.41178">
        <ele>21.207273483276</ele>
        <time>2019-05-30T22:15:52.808Z</time>
      </trkpt>
      <trkpt lat="49.24745" lon="1.41181">
        <ele>20.991310119629</ele>
        <time>2019-05-30T22:15:53.472Z</time>
      </trkpt>
      <trkpt lat="49.24741" lon="1.41177">
        <ele>20.94331741333</ele>
        <time>2019-05-30T22:15:54.136Z</time>
      </trkpt>
      <trkpt lat="49.24721" lon="1.41112">
        <ele>20.906541824341</ele>
        <time>2019-05-30T22:15:54.810Z</time>
      </trkpt>
      <trkpt lat="49.24661" lon="1.4087">
        <ele>19.734268188477</ele>
        <time>2019-05-30T22:15:55.518Z</time>
      </trkpt>
      <trkpt lat="49.24653" lon="1.40811">
        <ele>19.426565170288</ele>
        <time>2019-05-30T22:15:56.234Z</time>
      </trkpt>
      <trkpt lat="49.24649" lon="1.40747">
        <ele>19.506595611572</ele>
        <time>2019-05-30T22:15:56.958Z</time>
      </trkpt>
      <trkpt lat="49.24647" lon="1.40661">
        <ele>19.578372955322</ele>
        <time>2019-05-30T22:15:57.693Z</time>
      </trkpt>
      <trkpt lat="49.24638" lon="1.40526">
        <ele>19.777250289917</ele>
        <time>2019-05-30T22:15:58.446Z</time>
      </trkpt>
      <trkpt lat="49.24637" lon="1.4045">
        <ele>19.004100799561</ele>
        <time>2019-05-30T22:15:59.209Z</time>
      </trkpt>
      <trkpt lat="49.24629" lon="1.40378">
        <ele>17.738794326782</ele>
        <time>2019-05-30T22:15:59.982Z</time>
      </trkpt>
      <trkpt lat="49.24619" lon="1.4015">
        <ele>18.018924713135</ele>
        <time>2019-05-30T22:16:00.785Z</time>
      </trkpt>
      <trkpt lat="49.24608" lon="1.40029">
        <ele>18.217779159546</ele>
        <time>2019-05-30T22:16:01.604Z</time>
      </trkpt>
      <trkpt lat="49.24603" lon="1.39896">
        <ele>17.631362915039</ele>
        <time>2019-05-30T22:16:02.440Z</time>
      </trkpt>
      <trkpt lat="49.24597" lon="1.39847">
        <ele>18.118148803711</ele>
        <time>2019-05-30T22:16:03.283Z</time>
      </trkpt>
      <trkpt lat="49.2458" lon="1.39773">
        <ele>17.501443862915</ele>
        <time>2019-05-30T22:16:04.136Z</time>
      </trkpt>
      <trkpt lat="49.24579" lon="1.39758">
        <ele>17.753400802612</ele>
        <time>2019-05-30T22:16:04.991Z</time>
      </trkpt>
      <trkpt lat="49.24584" lon="1.39696">
        <ele>19.437297821045</ele>
        <time>2019-05-30T22:16:05.854Z</time>
      </trkpt>
      <trkpt lat="49.24597" lon="1.39646">
        <ele>19.072141647339</ele>
        <time>2019-05-30T22:16:06.724Z</time>
      </trkpt>
      <trkpt lat="49.24592" lon="1.39624">
        <ele>18.772192001343</ele>
        <time>2019-05-30T22:16:07.597Z</time>
      </trkpt>
      <trkpt lat="49.24553" lon="1.39567">
        <ele>16.432582855225</ele>
        <time>2019-05-30T22:16:08.481Z</time>
      </trkpt>
      <trkpt lat="49.2455" lon="1.39555">
        <ele>15.298973083496</ele>
        <time>2019-05-30T22:16:09.367Z</time>
      </trkpt>
      <trkpt lat="49.2456" lon="1.39522">
        <ele>12.731401443481</ele>
        <time>2019-05-30T22:16:10.257Z</time>
      </trkpt>
      <trkpt lat="49.24576" lon="1.39482">
        <ele>12.081997871399</ele>
        <time>2019-05-30T22:16:11.154Z</time>
      </trkpt>
      <trkpt lat="49.24593" lon="1.39442">
        <ele>13.17368221283</ele>
        <time>2019-05-30T22:16:12.057Z</time>
      </trkpt>
      <trkpt lat="49.24609" lon="1.39413">
        <ele>13.281663894653</ele>
        <time>2019-05-30T22:16:12.965Z</time>
      </trkpt>
      <trkpt lat="49.24699" lon="1.39265">
        <ele>11.491538047791</ele>
        <time>2019-05-30T22:16:13.899Z</time>
      </trkpt>
      <trkpt lat="49.24724" lon="1.39217">
        <ele>12.072617530823</ele>
        <time>2019-05-30T22:16:14.841Z</time>
      </trkpt>
      <trkpt lat="49.24767" lon="1.39161">
        <ele>14.907789230347</ele>
        <time>2019-05-30T22:16:15.795Z</time>
      </trkpt>
      <trkpt lat="49.24784" lon="1.39132">
        <ele>14.780381202698</ele>
        <time>2019-05-30T22:16:16.754Z</time>
      </trkpt>
      <trkpt lat="49.248" lon="1.39114">
        <ele>17.467933654785</ele>
        <time>2019-05-30T22:16:17.717Z</time>
      </trkpt>
      <trkpt lat="49.24823" lon="1.39079">
        <ele>17.605598449707</ele>
        <time>2019-05-30T22:16:18.686Z</time>
      </trkpt>
      <trkpt lat="49.24844" lon="1.39038">
        <ele>17.667963027954</ele>
        <time>2019-05-30T22:16:19.662Z</time>
      </trkpt>
      <trkpt lat="49.24899" lon="1.38947">
        <ele>18.224885940552</ele>
        <time>2019-05-30T22:16:20.654Z</time>
      </trkpt>
      <trkpt lat="49.24949" lon="1.38846">
        <ele>17.065752029419</ele>
        <time>2019-05-30T22:16:21.663Z</time>
      </trkpt>
      <trkpt lat="49.24981" lon="1.38788">
        <ele>20.359895706177</ele>
        <time>2019-05-30T22:16:22.682Z</time>
      </trkpt>
      <trkpt lat="49.25081" lon="1.3854">
        <ele>20.700448989868</ele>
        <time>2019-05-30T22:16:23.739Z</time>
      </trkpt>
      <trkpt lat="49.25156" lon="1.38318">
        <ele>21.890731811523</ele>
        <time>2019-05-30T22:16:24.829Z</time>
      </trkpt>
      <trkpt lat="49.25185" lon="1.38247">
        <ele>19.828128814697</ele>
        <time>2019-05-30T22:16:25.930Z</time>
      </trkpt>
      <trkpt lat="49.25208" lon="1.38201">
        <ele>22.550159454346</ele>
        <time>2019-05-30T22:16:27.038Z</time>
      </trkpt>
      <trkpt lat="49.25229" lon="1.38169">
        <ele>27.477760314941</ele>
        <time>2019-05-30T22:16:28.152Z</time>
      </trkpt>
      <trkpt lat="49.25252" lon="1.38121">
        <ele>27.138036727905</ele>
        <time>2019-05-30T22:16:29.274Z</time>
      </trkpt>
      <trkpt lat="49.25273" lon="1.38106">
        <ele>25.556465148926</ele>
        <time>2019-05-30T22:16:30.401Z</time>
      </trkpt>
      <trkpt lat="49.25289" lon="1.38088">
        <ele>26.455177307129</ele>
        <time>2019-05-30T22:16:31.532Z</time>
      </trkpt>
      <trkpt lat="49.25299" lon="1.38062">
        <ele>22.169786453247</ele>
        <time>2019-05-30T22:16:32.667Z</time>
      </trkpt>
      <trkpt lat="49.25322" lon="1.38031">
        <ele>26.021144866943</ele>
        <time>2019-05-30T22:16:33.808Z</time>
      </trkpt>
      <trkpt lat="49.25371" lon="1.37994">
        <ele>22.692270278931</ele>
        <time>2019-05-30T22:16:34.960Z</time>
      </trkpt>
      <trkpt lat="49.25399" lon="1.37962">
        <ele>20.515279769897</ele>
        <time>2019-05-30T22:16:36.119Z</time>
      </trkpt>
      <trkpt lat="49.2542" lon="1.37955">
        <ele>21.419973373413</ele>
        <time>2019-05-30T22:16:37.282Z</time>
      </trkpt>
      <trkpt lat="49.25465" lon="1.3796">
        <ele>21.491230010986</ele>
        <time>2019-05-30T22:16:38.454Z</time>
      </trkpt>
      <trkpt lat="49.25518" lon="1.37974">
        <ele>21.695196151733</ele>
        <time>2019-05-30T22:16:39.637Z</time>
      </trkpt>
      <trkpt lat="49.25556" lon="1.37993">
        <ele>23.340614318848</ele>
        <time>2019-05-30T22:16:40.828Z</time>
      </trkpt>
      <trkpt lat="49.25569" lon="1.38005">
        <ele>24.372442245483</ele>
        <time>2019-05-30T22:16:42.022Z</time>
      </trkpt>
      <trkpt lat="49.25577" lon="1.38016">
        <ele>25.224300384521</ele>
        <time>2019-05-30T22:16:43.218Z</time>
      </trkpt>
      <trkpt lat="49.25603" lon="1.38087">
        <ele>35.497402191162</ele>
        <time>2019-05-30T22:16:44.425Z</time>
      </trkpt>
      <trkpt lat="49.25603" lon="1.38087">
        <ele>35.473880767822</ele>
        <time>2019-05-30T22:16:45.632Z</time>
      </trkpt>
      <trkpt lat="49.25624" lon="1.38123">
        <ele>40.111518859863</ele>
        <time>2019-05-30T22:16:46.845Z</time>
      </trkpt>
      <trkpt lat="49.25631" lon="1.38152">
        <ele>44.997833251953</ele>
        <time>2019-05-30T22:16:48.062Z</time>
      </trkpt>
      <trkpt lat="49.25652" lon="1.38187">
        <ele>45.585735321045</ele>
        <time>2019-05-30T22:16:49.285Z</time>
      </trkpt>
      <trkpt lat="49.25652" lon="1.38193">
        <ele>46.915203094482</ele>
        <time>2019-05-30T22:16:50.509Z</time>
      </trkpt>
      <trkpt lat="49.25638" lon="1.38189">
        <ele>50.034683227539</ele>
        <time>2019-05-30T22:16:51.736Z</time>
      </trkpt>
      <trkpt lat="49.25626" lon="1.38181">
        <ele>51.666412353516</ele>
        <time>2019-05-30T22:16:52.966Z</time>
      </trkpt>
      <trkpt lat="49.25592" lon="1.3815">
        <ele>51.914344787598</ele>
        <time>2019-05-30T22:16:54.203Z</time>
      </trkpt>
      <trkpt lat="49.25585" lon="1.38141">
        <ele>50.869735717773</ele>
        <time>2019-05-30T22:16:55.442Z</time>
      </trkpt>
      <trkpt lat="49.25538" lon="1.38112">
        <ele>51.457637786865</ele>
        <time>2019-05-30T22:16:56.691Z</time>
      </trkpt>
      <trkpt lat="49.25504" lon="1.38086">
        <ele>48.190696716309</ele>
        <time>2019-05-30T22:16:57.948Z</time>
      </trkpt>
      <trkpt lat="49.25461" lon="1.38067">
        <ele>46.498977661133</ele>
        <time>2019-05-30T22:16:59.214Z</time>
      </trkpt>
      <trkpt lat="49.25437" lon="1.38068">
        <ele>46.774681091309</ele>
        <time>2019-05-30T22:17:00.485Z</time>
      </trkpt>
      <trkpt lat="49.25435" lon="1.38071">
        <ele>47.374584197998</ele>
        <time>2019-05-30T22:17:01.756Z</time>
      </trkpt>
      <trkpt lat="49.25439" lon="1.38083">
        <ele>51.357917785645</ele>
        <time>2019-05-30T22:17:03.029Z</time>
      </trkpt>
      <trkpt lat="49.25435" lon="1.38092">
        <ele>53.421573638916</ele>
        <time>2019-05-30T22:17:04.304Z</time>
      </trkpt>
      <trkpt lat="49.25422" lon="1.38107">
        <ele>56.025142669678</ele>
        <time>2019-05-30T22:17:05.582Z</time>
      </trkpt>
      <trkpt lat="49.25414" lon="1.38111">
        <ele>56.121124267578</ele>
        <time>2019-05-30T22:17:06.862Z</time>
      </trkpt>
      <trkpt lat="49.25408" lon="1.38111">
        <ele>55.416263580322</ele>
        <time>2019-05-30T22:17:08.143Z</time>
      </trkpt>
      <trkpt lat="49.25386" lon="1.38103">
        <ele>51.552909851074</ele>
        <time>2019-05-30T22:17:09.428Z</time>
      </trkpt>
      <trkpt lat="49.25378" lon="1.38103">
        <ele>51.264957427979</ele>
        <time>2019-05-30T22:17:10.715Z</time>
      </trkpt>
      <trkpt lat="49.25335" lon="1.38114">
        <ele>48.974800109863</ele>
        <time>2019-05-30T22:17:12.011Z</time>
      </trkpt>
      <trkpt lat="49.25324" lon="1.38121">
        <ele>47.067741394043</ele>
        <time>2019-05-30T22:17:13.309Z</time>
      </trkpt>
      <trkpt lat="49.25315" lon="1.38146">
        <ele>48.195552825928</ele>
        <time>2019-05-30T22:17:14.611Z</time>
      </trkpt>
      <trkpt lat="49.25316" lon="1.38155">
        <ele>51.25074005127</ele>
        <time>2019-05-30T22:17:15.914Z</time>
      </trkpt>
      <trkpt lat="49.25319" lon="1.38158">
        <ele>53.44637298584</ele>
        <time>2019-05-30T22:17:17.218Z</time>
      </trkpt>
      <trkpt lat="49.2532" lon="1.38175">
        <ele>59.361385345459</ele>
        <time>2019-05-30T22:17:18.524Z</time>
      </trkpt>
      <trkpt lat="49.25317" lon="1.38181">
        <ele>60.081268310547</ele>
        <time>2019-05-30T22:17:19.831Z</time>
      </trkpt>
      <trkpt lat="49.25315" lon="1.3818">
        <ele>58.941455841064</ele>
        <time>2019-05-30T22:17:21.138Z</time>
      </trkpt>
      <trkpt lat="49.25313" lon="1.38186">
        <ele>59.816589355469</ele>
        <time>2019-05-30T22:17:22.446Z</time>
      </trkpt>
      <trkpt lat="49.25313" lon="1.38189">
        <ele>60.608455657959</ele>
        <time>2019-05-30T22:17:23.755Z</time>
      </trkpt>
      <trkpt lat="49.2532" lon="1.38191">
        <ele>64.411819458008</ele>
        <time>2019-05-30T22:17:25.065Z</time>
      </trkpt>
      <trkpt lat="49.25319" lon="1.38215">
        <ele>70.278846740723</ele>
        <time>2019-05-30T22:17:26.378Z</time>
      </trkpt>
      <trkpt lat="49.25321" lon="1.38223">
        <ele>73.32633972168</ele>
        <time>2019-05-30T22:17:27.692Z</time>
      </trkpt>
      <trkpt lat="49.25316" lon="1.38255">
        <ele>78.86653137207</ele>
        <time>2019-05-30T22:17:29.011Z</time>
      </trkpt>
      <trkpt lat="49.25316" lon="1.3827">
        <ele>82.488304138184</ele>
        <time>2019-05-30T22:17:30.332Z</time>
      </trkpt>
      <trkpt lat="49.2532" lon="1.38273">
        <ele>85.06787109375</ele>
        <time>2019-05-30T22:17:31.653Z</time>
      </trkpt>
      <trkpt lat="49.2532" lon="1.38278">
        <ele>86.327667236328</ele>
        <time>2019-05-30T22:17:32.975Z</time>
      </trkpt>
      <trkpt lat="49.25311" lon="1.38286">
        <ele>84.240013122559</ele>
        <time>2019-05-30T22:17:34.299Z</time>
      </trkpt>
      <trkpt lat="49.25302" lon="1.38302">
        <ele>84.168022155762</ele>
        <time>2019-05-30T22:17:35.626Z</time>
      </trkpt>
      <trkpt lat="49.25288" lon="1.38312">
        <ele>80.304664611816</ele>
        <time>2019-05-30T22:17:36.956Z</time>
      </trkpt>
      <trkpt lat="49.25275" lon="1.38311">
        <ele>74.10831451416</ele>
        <time>2019-05-30T22:17:38.289Z</time>
      </trkpt>
      <trkpt lat="49.25278" lon="1.38307">
        <ele>74.50057220459</ele>
        <time>2019-05-30T22:17:39.622Z</time>
      </trkpt>
      <trkpt lat="49.25275" lon="1.383">
        <ele>71.405090332031</ele>
        <time>2019-05-30T22:17:40.956Z</time>
      </trkpt>
      <trkpt lat="49.25275" lon="1.38304">
        <ele>72.41291809082</ele>
        <time>2019-05-30T22:17:42.291Z</time>
      </trkpt>
      <trkpt lat="49.25276" lon="1.38301">
        <ele>72.100975036621</ele>
        <time>2019-05-30T22:17:43.626Z</time>
      </trkpt>
      <trkpt lat="49.25277" lon="1.38304">
        <ele>73.300773620605</ele>
        <time>2019-05-30T22:17:44.962Z</time>
      </trkpt>
      <trkpt lat="49.25286" lon="1.38308">
        <ele>78.384986877441</ele>
        <time>2019-05-30T22:17:46.300Z</time>
      </trkpt>
      <trkpt lat="49.25293" lon="1.38317">
        <ele>83.462287902832</ele>
        <time>2019-05-30T22:17:47.640Z</time>
      </trkpt>
      <trkpt lat="49.25298" lon="1.38372">
        <ele>93.596076965332</ele>
        <time>2019-05-30T22:17:48.987Z</time>
      </trkpt>
      <trkpt lat="49.25296" lon="1.38381">
        <ele>94.363952636719</ele>
        <time>2019-05-30T22:17:50.335Z</time>
      </trkpt>
      <trkpt lat="49.25281" lon="1.38406">
        <ele>92.583389282227</ele>
        <time>2019-05-30T22:17:51.688Z</time>
      </trkpt>
      <trkpt lat="49.25277" lon="1.38425">
        <ele>93.583953857422</ele>
        <time>2019-05-30T22:17:53.043Z</time>
      </trkpt>
      <trkpt lat="49.25279" lon="1.3846">
        <ele>99.774917602539</ele>
        <time>2019-05-30T22:17:54.403Z</time>
      </trkpt>
      <trkpt lat="49.25272" lon="1.38486">
        <ele>99.207450866699</ele>
        <time>2019-05-30T22:17:55.766Z</time>
      </trkpt>
      <trkpt lat="49.2527" lon="1.38511">
        <ele>97.875671386719</ele>
        <time>2019-05-30T22:17:57.133Z</time>
      </trkpt>
      <trkpt lat="49.25272" lon="1.38529">
        <ele>98.691535949707</ele>
        <time>2019-05-30T22:17:58.502Z</time>
      </trkpt>
      <trkpt lat="49.2529" lon="1.38596">
        <ele>104.87618255615</ele>
        <time>2019-05-30T22:17:59.881Z</time>
      </trkpt>
      <trkpt lat="49.25302" lon="1.38617">
        <ele>108.5835647583</ele>
        <time>2019-05-30T22:18:01.263Z</time>
      </trkpt>
      <trkpt lat="49.25319" lon="1.38666">
        <ele>115.28853607178</ele>
        <time>2019-05-30T22:18:02.653Z</time>
      </trkpt>
      <trkpt lat="49.25319" lon="1.38686">
        <ele>116.96825408936</ele>
        <time>2019-05-30T22:18:04.045Z</time>
      </trkpt>
      <trkpt lat="49.25323" lon="1.38702">
        <ele>120.65045166016</ele>
        <time>2019-05-30T22:18:05.439Z</time>
      </trkpt>
      <trkpt lat="49.25314" lon="1.3872">
        <ele>121.08238220215</ele>
        <time>2019-05-30T22:18:06.836Z</time>
      </trkpt>
      <trkpt lat="49.25316" lon="1.38738">
        <ele>124.36806488037</ele>
        <time>2019-05-30T22:18:08.236Z</time>
      </trkpt>
      <trkpt lat="49.25311" lon="1.38765">
        <ele>126.40287780762</ele>
        <time>2019-05-30T22:18:09.639Z</time>
      </trkpt>
      <trkpt lat="49.25311" lon="1.38786">
        <ele>131.69400024414</ele>
        <time>2019-05-30T22:18:11.045Z</time>
      </trkpt>
      <trkpt lat="49.25311" lon="1.3878">
        <ele>130.18225097656</ele>
        <time>2019-05-30T22:18:12.452Z</time>
      </trkpt>
      <trkpt lat="49.25316" lon="1.38782">
        <ele>131.46603393555</ele>
        <time>2019-05-30T22:18:13.860Z</time>
      </trkpt>
      <trkpt lat="49.25335" lon="1.38757">
        <ele>132.11877441406</ele>
        <time>2019-05-30T22:18:15.273Z</time>
      </trkpt>
      <trkpt lat="49.25345" lon="1.38749">
        <ele>134.03845214844</ele>
        <time>2019-05-30T22:18:16.688Z</time>
      </trkpt>
      <trkpt lat="49.25344" lon="1.38741">
        <ele>132.79066467285</ele>
        <time>2019-05-30T22:18:18.104Z</time>
      </trkpt>
      <trkpt lat="49.25357" lon="1.38784">
        <ele>141.69317626953</ele>
        <time>2019-05-30T22:18:19.527Z</time>
      </trkpt>
      <trkpt lat="49.25386" lon="1.38859">
        <ele>148.27819824219</ele>
        <time>2019-05-30T22:18:20.961Z</time>
      </trkpt>
      <trkpt lat="49.25394" lon="1.38892">
        <ele>149.57397460938</ele>
        <time>2019-05-30T22:18:22.400Z</time>
      </trkpt>
      <trkpt lat="49.25443" lon="1.39031">
        <ele>153.81678771973</ele>
        <time>2019-05-30T22:18:23.859Z</time>
      </trkpt>
      <trkpt lat="49.25478" lon="1.39119">
        <ele>153.07666015625</ele>
        <time>2019-05-30T22:18:25.332Z</time>
      </trkpt>
      <trkpt lat="49.25486" lon="1.39168">
        <ele>153.30944824219</ele>
        <time>2019-05-30T22:18:26.811Z</time>
      </trkpt>
      <trkpt lat="49.25498" lon="1.39211">
        <ele>153.75074768066</ele>
        <time>2019-05-30T22:18:28.297Z</time>
      </trkpt>
      <trkpt lat="49.25549" lon="1.39325">
        <ele>152.57485961914</ele>
        <time>2019-05-30T22:18:29.801Z</time>
      </trkpt>
      <trkpt lat="49.25575" lon="1.39398">
        <ele>148.81478881836</ele>
        <time>2019-05-30T22:18:31.316Z</time>
      </trkpt>
      <trkpt lat="49.25583" lon="1.39425">
        <ele>147.45901489258</ele>
        <time>2019-05-30T22:18:32.834Z</time>
      </trkpt>
      <trkpt lat="49.25581" lon="1.39437">
        <ele>147.12306213379</ele>
        <time>2019-05-30T22:18:34.354Z</time>
      </trkpt>
      <trkpt lat="49.25576" lon="1.39441">
        <ele>147.21905517578</ele>
        <time>2019-05-30T22:18:35.875Z</time>
      </trkpt>
      <trkpt lat="49.25548" lon="1.39452">
        <ele>148.58735656738</ele>
        <time>2019-05-30T22:18:37.402Z</time>
      </trkpt>
      <trkpt lat="49.25541" lon="1.3946">
        <ele>148.81532287598</ele>
        <time>2019-05-30T22:18:38.931Z</time>
      </trkpt>
      <trkpt lat="49.25535" lon="1.39481">
        <ele>148.67135620117</ele>
        <time>2019-05-30T22:18:40.463Z</time>
      </trkpt>
      <trkpt lat="49.25534" lon="1.3951">
        <ele>147.80767822266</ele>
        <time>2019-05-30T22:18:41.999Z</time>
      </trkpt>
      <trkpt lat="49.2553" lon="1.39517">
        <ele>147.69969177246</ele>
        <time>2019-05-30T22:18:43.536Z</time>
      </trkpt>
      <trkpt lat="49.25471" lon="1.39541">
        <ele>148.83451843262</ele>
        <time>2019-05-30T22:18:45.085Z</time>
      </trkpt>
      <trkpt lat="49.25444" lon="1.39547">
        <ele>149.14573669434</ele>
        <time>2019-05-30T22:18:46.639Z</time>
      </trkpt>
      <trkpt lat="49.25397" lon="1.39568">
        <ele>150.27514648438</ele>
        <time>2019-05-30T22:18:48.203Z</time>
      </trkpt>
      <trkpt lat="49.25343" lon="1.3961">
        <ele>149.67276000977</ele>
        <time>2019-05-30T22:18:49.779Z</time>
      </trkpt>
      <trkpt lat="49.25289" lon="1.3968">
        <ele>147.61946105957</ele>
        <time>2019-05-30T22:18:51.370Z</time>
      </trkpt>
      <trkpt lat="49.25276" lon="1.39688">
        <ele>147.44561767578</ele>
        <time>2019-05-30T22:18:52.963Z</time>
      </trkpt>
      <trkpt lat="49.25263" lon="1.39692">
        <ele>147.08567810059</ele>
        <time>2019-05-30T22:18:54.559Z</time>
      </trkpt>
      <trkpt lat="49.25229" lon="1.39712">
        <ele>146.02984619141</ele>
        <time>2019-05-30T22:18:56.162Z</time>
      </trkpt>
      <trkpt lat="49.25162" lon="1.39755">
        <ele>143.90620422363</ele>
        <time>2019-05-30T22:18:57.780Z</time>
      </trkpt>
      <trkpt lat="49.25137" lon="1.39795">
        <ele>141.89245605469</ele>
        <time>2019-05-30T22:18:59.405Z</time>
      </trkpt>
      <trkpt lat="49.25106" lon="1.39831">
        <ele>139.1004486084</ele>
        <time>2019-05-30T22:19:01.038Z</time>
      </trkpt>
      <trkpt lat="49.25034" lon="1.39958">
        <ele>125.60024261475</ele>
        <time>2019-05-30T22:19:02.693Z</time>
      </trkpt>
      <trkpt lat="49.25001" lon="1.40037">
        <ele>115.90253448486</ele>
        <time>2019-05-30T22:19:04.360Z</time>
      </trkpt>
      <trkpt lat="49.24996" lon="1.40056">
        <ele>113.95886230469</ele>
        <time>2019-05-30T22:19:06.030Z</time>
      </trkpt>
      <trkpt lat="49.24982" lon="1.40081">
        <ele>109.33985900879</ele>
        <time>2019-05-30T22:19:07.704Z</time>
      </trkpt>
      <trkpt lat="49.24958" lon="1.4014">
        <ele>102.72309112549</ele>
        <time>2019-05-30T22:19:09.387Z</time>
      </trkpt>
      <trkpt lat="49.24947" lon="1.402">
        <ele>98.388595581055</ele>
        <time>2019-05-30T22:19:11.078Z</time>
      </trkpt>
      <trkpt lat="49.24942" lon="1.40258">
        <ele>95.666862487793</ele>
        <time>2019-05-30T22:19:12.777Z</time>
      </trkpt>
      <trkpt lat="49.24935" lon="1.40282">
        <ele>93.531211853027</ele>
        <time>2019-05-30T22:19:14.480Z</time>
      </trkpt>
      <trkpt lat="49.24934" lon="1.4028">
        <ele>93.29125213623</ele>
        <time>2019-05-30T22:19:16.183Z</time>
      </trkpt>
      <trkpt lat="49.24933" lon="1.40293">
        <ele>92.871322631836</ele>
        <time>2019-05-30T22:19:17.888Z</time>
      </trkpt>
      <trkpt lat="49.24923" lon="1.40324">
        <ele>89.967086791992</ele>
        <time>2019-05-30T22:19:19.597Z</time>
      </trkpt>
      <trkpt lat="49.24914" lon="1.40343">
        <ele>87.59147644043</ele>
        <time>2019-05-30T22:19:21.309Z</time>
      </trkpt>
      <trkpt lat="49.24904" lon="1.40355">
        <ele>84.951919555664</ele>
        <time>2019-05-30T22:19:23.024Z</time>
      </trkpt>
      <trkpt lat="49.24892" lon="1.40376">
        <ele>82.161766052246</ele>
        <time>2019-05-30T22:19:24.742Z</time>
      </trkpt>
      <trkpt lat="49.24857" lon="1.40418">
        <ele>73.582778930664</ele>
        <time>2019-05-30T22:19:26.469Z</time>
      </trkpt>
      <trkpt lat="49.24845" lon="1.40421">
        <ele>70.019378662109</ele>
        <time>2019-05-30T22:19:28.199Z</time>
      </trkpt>
      <trkpt lat="49.24833" lon="1.40396">
        <ele>66.177803039551</ele>
        <time>2019-05-30T22:19:29.933Z</time>
      </trkpt>
      <trkpt lat="49.24823" lon="1.40381">
        <ele>63.358268737793</ele>
        <time>2019-05-30T22:19:31.670Z</time>
      </trkpt>
      <trkpt lat="49.24806" lon="1.40377">
        <ele>58.307109832764</ele>
        <time>2019-05-30T22:19:33.410Z</time>
      </trkpt>
      <trkpt lat="49.24791" lon="1.40357">
        <ele>54.047821044922</ele>
        <time>2019-05-30T22:19:35.154Z</time>
      </trkpt>
      <trkpt lat="49.24752" lon="1.40332">
        <ele>42.649719238281</ele>
        <time>2019-05-30T22:19:36.907Z</time>
      </trkpt>
      <trkpt lat="49.24738" lon="1.40315">
        <ele>38.652214050293</ele>
        <time>2019-05-30T22:19:38.663Z</time>
      </trkpt>
      <trkpt lat="49.24715" lon="1.40294">
        <ele>31.249446868896</ele>
        <time>2019-05-30T22:19:40.424Z</time>
      </trkpt>
      <trkpt lat="49.24704" lon="1.40277">
        <ele>27.542064666748</ele>
        <time>2019-05-30T22:19:42.189Z</time>
      </trkpt>
      <trkpt lat="49.2469" lon="1.40224">
        <ele>23.693977355957</ele>
        <time>2019-05-30T22:19:43.961Z</time>
      </trkpt>
      <trkpt lat="49.24681" lon="1.40201">
        <ele>24.281879425049</ele>
        <time>2019-05-30T22:19:45.737Z</time>
      </trkpt>
      <trkpt lat="49.24671" lon="1.40159">
        <ele>26.513507843018</ele>
        <time>2019-05-30T22:19:47.518Z</time>
      </trkpt>
      <trkpt lat="49.24654" lon="1.40138">
        <ele>24.599086761475</ele>
        <time>2019-05-30T22:19:49.304Z</time>
      </trkpt>
      <trkpt lat="49.24641" lon="1.40128">
        <ele>22.379457473755</ele>
        <time>2019-05-30T22:19:51.093Z</time>
      </trkpt>
      <trkpt lat="49.2463" lon="1.40106">
        <ele>20.663743972778</ele>
        <time>2019-05-30T22:19:52.885Z</time>
      </trkpt>
      <trkpt lat="49.24614" lon="1.39992">
        <ele>19.22557258606</ele>
        <time>2019-05-30T22:19:54.693Z</time>
      </trkpt>
      <trkpt lat="49.24613" lon="1.39963">
        <ele>18.903907775879</ele>
        <time>2019-05-30T22:19:56.504Z</time>
      </trkpt>
      <trkpt lat="49.24615" lon="1.39963">
        <ele>19.383829116821</ele>
        <time>2019-05-30T22:19:58.316Z</time>
      </trkpt>
      <trkpt lat="49.24615" lon="1.39952">
        <ele>19.251850128174</ele>
        <time>2019-05-30T22:20:00.129Z</time>
      </trkpt>
      <trkpt lat="49.24612" lon="1.39938">
        <ele>18.459224700928</ele>
        <time>2019-05-30T22:20:01.944Z</time>
      </trkpt>
      <trkpt lat="49.24607" lon="1.39941">
        <ele>18.31524848938</ele>
        <time>2019-05-30T22:20:03.760Z</time>
      </trkpt>
      <trkpt lat="49.24598" lon="1.39957">
        <ele>18.183271408081</ele>
        <time>2019-05-30T22:20:05.579Z</time>
      </trkpt>
      <trkpt lat="49.24569" lon="1.39966">
        <ele>16.913938522339</ele>
        <time>2019-05-30T22:20:07.404Z</time>
      </trkpt>
      <trkpt lat="49.24561" lon="1.39977">
        <ele>16.530002593994</ele>
        <time>2019-05-30T22:20:09.231Z</time>
      </trkpt>
      <trkpt lat="49.24546" lon="1.40019">
        <ele>15.852928161621</ele>
        <time>2019-05-30T22:20:11.064Z</time>
      </trkpt>
      <trkpt lat="49.2454" lon="1.40109">
        <ele>15.336252212524</ele>
        <time>2019-05-30T22:20:12.909Z</time>
      </trkpt>
      <trkpt lat="49.24527" lon="1.4015">
        <ele>14.050863265991</ele>
        <time>2019-05-30T22:20:14.760Z</time>
      </trkpt>
      <trkpt lat="49.2453" lon="1.40242">
        <ele>14.236280441284</ele>
        <time>2019-05-30T22:20:16.623Z</time>
      </trkpt>
      <trkpt lat="49.24536" lon="1.40306">
        <ele>15.700036048889</ele>
        <time>2019-05-30T22:20:18.495Z</time>
      </trkpt>
      <trkpt lat="49.24542" lon="1.4044">
        <ele>17.154539108276</ele>
        <time>2019-05-30T22:20:20.384Z</time>
      </trkpt>
      <trkpt lat="49.2454" lon="1.40447">
        <ele>17.130542755127</ele>
        <time>2019-05-30T22:20:22.274Z</time>
      </trkpt>
      <trkpt lat="49.24527" lon="1.40452">
        <ele>17</ele>
        <time>2019-05-30T22:20:24.167Z</time>
      </trkpt>
      <trkpt lat="49.24498" lon="1.40452">
        <ele>17</ele>
        <time>2019-05-30T22:20:26.066Z</time>
      </trkpt>
      <trkpt lat="49.24464" lon="1.40458">
        <ele>17</ele>
        <time>2019-05-30T22:20:27.972Z</time>
      </trkpt>
      <trkpt lat="49.24482" lon="1.40458">
        <ele>17</ele>
        <time>2019-05-30T22:20:29.881Z</time>
      </trkpt>
      <trkpt lat="49.24489" lon="1.40462">
        <ele>17</ele>
        <time>2019-05-30T22:20:31.792Z</time>
      </trkpt>
      <trkpt lat="49.24494" lon="1.4047">
        <ele>17</ele>
        <time>2019-05-30T22:20:33.704Z</time>
      </trkpt>
      <trkpt lat="49.24497" lon="1.40491">
        <ele>17</ele>
        <time>2019-05-30T22:20:35.619Z</time>
      </trkpt>
      <trkpt lat="49.24494" lon="1.40543">
        <ele>17</ele>
        <time>2019-05-30T22:20:37.541Z</time>
      </trkpt>
      <trkpt lat="49.24494" lon="1.40639">
        <ele>16.113372802734</ele>
        <time>2019-05-30T22:20:39.476Z</time>
      </trkpt>
      <trkpt lat="49.24499" lon="1.40817">
        <ele>16.66089630127</ele>
        <time>2019-05-30T22:20:41.434Z</time>
      </trkpt>
      <trkpt lat="49.24515" lon="1.40873">
        <ele>17.524751663208</ele>
        <time>2019-05-30T22:20:43.400Z</time>
      </trkpt>
      <trkpt lat="49.24562" lon="1.40988">
        <ele>17.394498825073</ele>
        <time>2019-05-30T22:20:45.384Z</time>
      </trkpt>
      <trkpt lat="49.24599" lon="1.41093">
        <ele>18</ele>
        <time>2019-05-30T22:20:47.383Z</time>
      </trkpt>
      <trkpt lat="49.24645" lon="1.41162">
        <ele>18.78066444397</ele>
        <time>2019-05-30T22:20:49.395Z</time>
      </trkpt>
      <trkpt lat="49.24666" lon="1.41208">
        <ele>19.284580230713</ele>
        <time>2019-05-30T22:20:51.415Z</time>
      </trkpt>
      <trkpt lat="49.24672" lon="1.41239">
        <ele>19.428556442261</ele>
        <time>2019-05-30T22:20:53.439Z</time>
      </trkpt>
      <trkpt lat="49.24673" lon="1.41283">
        <ele>19.45255279541</ele>
        <time>2019-05-30T22:20:55.469Z</time>
      </trkpt>
      <trkpt lat="49.24667" lon="1.4135">
        <ele>18.891370773315</ele>
        <time>2019-05-30T22:20:57.507Z</time>
      </trkpt>
      <trkpt lat="49.24668" lon="1.41387">
        <ele>18.666286468506</ele>
        <time>2019-05-30T22:20:59.550Z</time>
      </trkpt>
      <trkpt lat="49.24666" lon="1.41408">
        <ele>18.755380630493</ele>
        <time>2019-05-30T22:21:01.596Z</time>
      </trkpt>
      <trkpt lat="49.24651" lon="1.41475">
        <ele>19.833911895752</ele>
        <time>2019-05-30T22:21:03.651Z</time>
      </trkpt>
      <trkpt lat="49.24644" lon="1.41477">
        <ele>19.881902694702</ele>
        <time>2019-05-30T22:21:05.708Z</time>
      </trkpt>
      <trkpt lat="49.24615" lon="1.41475">
        <ele>19.833911895752</ele>
        <time>2019-05-30T22:21:07.771Z</time>
      </trkpt>
      <trkpt lat="49.24578" lon="1.41482">
        <ele>20.000942230225</ele>
        <time>2019-05-30T22:21:09.841Z</time>
      </trkpt>
      <trkpt lat="49.2453" lon="1.41497">
        <ele>20.351261138916</ele>
        <time>2019-05-30T22:21:11.921Z</time>
      </trkpt>
      <trkpt lat="49.24485" lon="1.41508">
        <ele>31.212732315063</ele>
        <time>2019-05-30T22:21:14.010Z</time>
      </trkpt>
      <trkpt lat="49.24477" lon="1.41511">
        <ele>33.204399108887</ele>
        <time>2019-05-30T22:21:16.101Z</time>
      </trkpt>
      <trkpt lat="49.24474" lon="1.41517">
        <ele>34.314846038818</ele>
        <time>2019-05-30T22:21:18.193Z</time>
      </trkpt>
      <trkpt lat="49.24479" lon="1.41544">
        <ele>34.554809570312</ele>
        <time>2019-05-30T22:21:20.288Z</time>
      </trkpt>
      <trkpt lat="49.24494" lon="1.4158">
        <ele>31.868154525757</ele>
        <time>2019-05-30T22:21:22.389Z</time>
      </trkpt>
      <trkpt lat="49.24501" lon="1.41613">
        <ele>30.332410812378</ele>
        <time>2019-05-30T22:21:24.494Z</time>
      </trkpt>
      <trkpt lat="49.24501" lon="1.41624">
        <ele>30.800687789917</ele>
        <time>2019-05-30T22:21:26.601Z</time>
      </trkpt>
      <trkpt lat="49.24503" lon="1.41625">
        <ele>30.164793014526</ele>
        <time>2019-05-30T22:21:28.708Z</time>
      </trkpt>
      <trkpt lat="49.24504" lon="1.41622">
        <ele>29.612529754639</ele>
        <time>2019-05-30T22:21:30.816Z</time>
      </trkpt>
      <trkpt lat="49.24506" lon="1.41629">
        <ele>29.480907440186</ele>
        <time>2019-05-30T22:21:32.925Z</time>
      </trkpt>
      <trkpt lat="49.24518" lon="1.41718">
        <ele>30.465700149536</ele>
        <time>2019-05-30T22:21:35.046Z</time>
      </trkpt>
      <trkpt lat="49.24517" lon="1.41775">
        <ele>33.056827545166</ele>
        <time>2019-05-30T22:21:37.174Z</time>
      </trkpt>
      <trkpt lat="49.24519" lon="1.41822">
        <ele>34.047866821289</ele>
        <time>2019-05-30T22:21:39.308Z</time>
      </trkpt>
      <trkpt lat="49.24515" lon="1.41861">
        <ele>35.211673736572</ele>
        <time>2019-05-30T22:21:41.447Z</time>
      </trkpt>
      <trkpt lat="49.24514" lon="1.4191">
        <ele>37.299335479736</ele>
        <time>2019-05-30T22:21:43.593Z</time>
      </trkpt>
      <trkpt lat="49.24507" lon="1.4198">
        <ele>40.711879730225</ele>
        <time>2019-05-30T22:21:45.748Z</time>
      </trkpt>
      <trkpt lat="49.24509" lon="1.42005">
        <ele>41.311199188232</ele>
        <time>2019-05-30T22:21:47.906Z</time>
      </trkpt>
      <trkpt lat="49.24523" lon="1.42071">
        <ele>38.914306640625</ele>
        <time>2019-05-30T22:21:50.074Z</time>
      </trkpt>
      <trkpt lat="49.24526" lon="1.42104">
        <ele>39.202255249023</ele>
        <time>2019-05-30T22:21:52.246Z</time>
      </trkpt>
      <trkpt lat="49.2453" lon="1.42164">
        <ele>40.004016876221</ele>
        <time>2019-05-30T22:21:54.426Z</time>
      </trkpt>
      <trkpt lat="49.24531" lon="1.42228">
        <ele>40.567924499512</ele>
        <time>2019-05-30T22:21:56.614Z</time>
      </trkpt>
      <trkpt lat="49.2454" lon="1.42313">
        <ele>37.360389709473</ele>
        <time>2019-05-30T22:21:58.813Z</time>
      </trkpt>
      <trkpt lat="49.24539" lon="1.42346">
        <ele>38.560565948486</ele>
        <time>2019-05-30T22:22:01.017Z</time>
      </trkpt>
      <trkpt lat="49.24534" lon="1.42351">
        <ele>39.520404815674</ele>
        <time>2019-05-30T22:22:03.222Z</time>
      </trkpt>
      <trkpt lat="49.24528" lon="1.42351">
        <ele>40.469680786133</ele>
        <time>2019-05-30T22:22:05.428Z</time>
      </trkpt>
      <trkpt lat="49.24501" lon="1.42338">
        <ele>44.537002563477</ele>
        <time>2019-05-30T22:22:07.640Z</time>
      </trkpt>
      <trkpt lat="49.24451" lon="1.42338">
        <ele>52.518585205078</ele>
        <time>2019-05-30T22:22:09.862Z</time>
      </trkpt>
      <trkpt lat="49.24413" lon="1.42326">
        <ele>55.093273162842</ele>
        <time>2019-05-30T22:22:12.092Z</time>
      </trkpt>
      <trkpt lat="49.24398" lon="1.42325">
        <ele>55.98112487793</ele>
        <time>2019-05-30T22:22:14.325Z</time>
      </trkpt>
      <trkpt lat="49.24392" lon="1.42329">
        <ele>56.389057159424</ele>
        <time>2019-05-30T22:22:16.559Z</time>
      </trkpt>
      <trkpt lat="49.2439" lon="1.42334">
        <ele>56.569026947021</ele>
        <time>2019-05-30T22:22:18.794Z</time>
      </trkpt>
      <trkpt lat="49.24388" lon="1.42365">
        <ele>58.214263916016</ele>
        <time>2019-05-30T22:22:21.033Z</time>
      </trkpt>
      <trkpt lat="49.24383" lon="1.42383">
        <ele>59.833992004395</ele>
        <time>2019-05-30T22:22:23.274Z</time>
      </trkpt>
      <trkpt lat="49.24376" lon="1.42393">
        <ele>61.189765930176</ele>
        <time>2019-05-30T22:22:25.517Z</time>
      </trkpt>
      <trkpt lat="49.24358" lon="1.42402">
        <ele>63.924831390381</ele>
        <time>2019-05-30T22:22:27.764Z</time>
      </trkpt>
      <trkpt lat="49.24355" lon="1.424">
        <ele>64.248779296875</ele>
        <time>2019-05-30T22:22:30.012Z</time>
      </trkpt>
      <trkpt lat="49.24355" lon="1.4239">
        <ele>63.544681549072</ele>
        <time>2019-05-30T22:22:32.261Z</time>
      </trkpt>
      <trkpt lat="49.24357" lon="1.42393">
        <ele>63.436698913574</ele>
        <time>2019-05-30T22:22:34.511Z</time>
      </trkpt>
      <trkpt lat="49.2436" lon="1.42392">
        <ele>62.94478225708</ele>
        <time>2019-05-30T22:22:36.761Z</time>
      </trkpt>
      <trkpt lat="49.24354" lon="1.42395">
        <ele>64.044807434082</ele>
        <time>2019-05-30T22:22:39.012Z</time>
      </trkpt>
      <trkpt lat="49.24357" lon="1.4239">
        <ele>63.256729125977</ele>
        <time>2019-05-30T22:22:41.264Z</time>
      </trkpt>
      <trkpt lat="49.24359" lon="1.42396">
        <ele>63.336929321289</ele>
        <time>2019-05-30T22:22:43.517Z</time>
      </trkpt>
      <trkpt lat="49.24362" lon="1.42397">
        <ele>62.95677947998</ele>
        <time>2019-05-30T22:22:45.771Z</time>
      </trkpt>
      <trkpt lat="49.24362" lon="1.42403">
        <ele>63.37292098999</ele>
        <time>2019-05-30T22:22:48.026Z</time>
      </trkpt>
      <trkpt lat="49.24359" lon="1.42401">
        <ele>63.696868896484</ele>
        <time>2019-05-30T22:22:50.281Z</time>
      </trkpt>
      <trkpt lat="49.24359" lon="1.42397">
        <ele>63.408916473389</ele>
        <time>2019-05-30T22:22:52.537Z</time>
      </trkpt>
      <trkpt lat="49.24361" lon="1.42397">
        <ele>63.100757598877</ele>
        <time>2019-05-30T22:22:54.793Z</time>
      </trkpt>
      <trkpt lat="49.24357" lon="1.42409">
        <ele>64.584716796875</ele>
        <time>2019-05-30T22:22:57.051Z</time>
      </trkpt>
      <trkpt lat="49.24346" lon="1.42422">
        <ele>67.236274719238</ele>
        <time>2019-05-30T22:22:59.312Z</time>
      </trkpt>
      <trkpt lat="49.24334" lon="1.42426">
        <ele>69.395919799805</ele>
        <time>2019-05-30T22:23:01.575Z</time>
      </trkpt>
      <trkpt lat="49.24316" lon="1.42426">
        <ele>72.203453063965</ele>
        <time>2019-05-30T22:23:03.842Z</time>
      </trkpt>
      <trkpt lat="49.24288" lon="1.42431">
        <ele>77.210662841797</ele>
        <time>2019-05-30T22:23:06.115Z</time>
      </trkpt>
      <trkpt lat="49.24264" lon="1.42428">
        <ele>80.809127807617</ele>
        <time>2019-05-30T22:23:08.392Z</time>
      </trkpt>
      <trkpt lat="49.24236" lon="1.42432">
        <ele>85.512336730957</ele>
        <time>2019-05-30T22:23:10.675Z</time>
      </trkpt>
      <trkpt lat="49.24201" lon="1.42432">
        <ele>90.97142791748</ele>
        <time>2019-05-30T22:23:12.965Z</time>
      </trkpt>
      <trkpt lat="49.24175" lon="1.42429">
        <ele>95.02352142334</ele>
        <time>2019-05-30T22:23:15.260Z</time>
      </trkpt>
      <trkpt lat="49.24157" lon="1.42432">
        <ele>98.298980712891</ele>
        <time>2019-05-30T22:23:17.559Z</time>
      </trkpt>
      <trkpt lat="49.24152" lon="1.42437">
        <ele>99.558769226074</ele>
        <time>2019-05-30T22:23:19.859Z</time>
      </trkpt>
      <trkpt lat="49.2415" lon="1.42451">
        <ele>101.07051849365</ele>
        <time>2019-05-30T22:23:22.161Z</time>
      </trkpt>
      <trkpt lat="49.24153" lon="1.42479">
        <ele>102.91820526123</ele>
        <time>2019-05-30T22:23:24.467Z</time>
      </trkpt>
      <trkpt lat="49.2415" lon="1.42489">
        <ele>103.93027496338</ele>
        <time>2019-05-30T22:23:26.774Z</time>
      </trkpt>
      <trkpt lat="49.24146" lon="1.42491">
        <ele>104.67414855957</ele>
        <time>2019-05-30T22:23:29.082Z</time>
      </trkpt>
      <trkpt lat="49.24128" lon="1.4248">
        <ele>107.20149230957</ele>
        <time>2019-05-30T22:23:31.394Z</time>
      </trkpt>
      <trkpt lat="49.24107" lon="1.42462">
        <ele>109.60470581055</ele>
        <time>2019-05-30T22:23:33.711Z</time>
      </trkpt>
      <trkpt lat="49.24078" lon="1.42442">
        <ele>114.88382720947</ele>
        <time>2019-05-30T22:23:36.034Z</time>
      </trkpt>
      <trkpt lat="49.24056" lon="1.42432">
        <ele>118.34117889404</ele>
        <time>2019-05-30T22:23:38.362Z</time>
      </trkpt>
      <trkpt lat="49.24039" lon="1.4242">
        <ele>120.63279724121</ele>
        <time>2019-05-30T22:23:40.693Z</time>
      </trkpt>
      <trkpt lat="49.24023" lon="1.42402">
        <ele>123.41719818115</ele>
        <time>2019-05-30T22:23:43.028Z</time>
      </trkpt>
      <trkpt lat="49.23989" lon="1.42372">
        <ele>128.92739868164</ele>
        <time>2019-05-30T22:23:45.371Z</time>
      </trkpt>
      <trkpt lat="49.23961" lon="1.42331">
        <ele>134.41047668457</ele>
        <time>2019-05-30T22:23:47.722Z</time>
      </trkpt>
      <trkpt lat="49.23947" lon="1.42322">
        <ele>136.46214294434</ele>
        <time>2019-05-30T22:23:50.076Z</time>
      </trkpt>
      <trkpt lat="49.23926" lon="1.42315">
        <ele>138.42210388184</ele>
        <time>2019-05-30T22:23:52.434Z</time>
      </trkpt>
      <trkpt lat="49.23904" lon="1.42316">
        <ele>139.96473693848</ele>
        <time>2019-05-30T22:23:54.797Z</time>
      </trkpt>
      <trkpt lat="49.23885" lon="1.42324">
        <ele>140.85260009766</ele>
        <time>2019-05-30T22:23:57.164Z</time>
      </trkpt>
      <trkpt lat="49.23861" lon="1.42338">
        <ele>142.23460388184</ele>
        <time>2019-05-30T22:23:59.536Z</time>
      </trkpt>
      <trkpt lat="49.2383" lon="1.42349">
        <ele>142.95448303223</ele>
        <time>2019-05-30T22:24:01.914Z</time>
      </trkpt>
      <trkpt lat="49.23769" lon="1.42361">
        <ele>145.57273864746</ele>
        <time>2019-05-30T22:24:04.304Z</time>
      </trkpt>
      <trkpt lat="49.23762" lon="1.42358">
        <ele>145.69271850586</ele>
        <time>2019-05-30T22:24:06.696Z</time>
      </trkpt>
      <trkpt lat="49.23755" lon="1.42337">
        <ele>146.02865600586</ele>
        <time>2019-05-30T22:24:09.091Z</time>
      </trkpt>
      <trkpt lat="49.23755" lon="1.42242">
        <ele>147.45635986328</ele>
        <time>2019-05-30T22:24:11.498Z</time>
      </trkpt>
      <trkpt lat="49.23746" lon="1.42146">
        <ele>149.06318664551</ele>
        <time>2019-05-30T22:24:13.918Z</time>
      </trkpt>
      <trkpt lat="49.23746" lon="1.42146">
        <ele>149.07051086426</ele>
        <time>2019-05-30T22:24:16.338Z</time>
      </trkpt>
      <trkpt lat="49.23746" lon="1.42146">
        <ele>149.06477355957</ele>
        <time>2019-05-30T22:24:18.758Z</time>
      </trkpt>
      <trkpt lat="49.23748" lon="1.42001">
        <ele>148.97164916992</ele>
        <time>2019-05-30T22:24:21.197Z</time>
      </trkpt>
      <trkpt lat="49.23745" lon="1.4195">
        <ele>149.19972229004</ele>
        <time>2019-05-30T22:24:23.643Z</time>
      </trkpt>
      <trkpt lat="49.23727" lon="1.41868">
        <ele>150.61549377441</ele>
        <time>2019-05-30T22:24:26.100Z</time>
      </trkpt>
      <trkpt lat="49.23721" lon="1.41829">
        <ele>151.22738647461</ele>
        <time>2019-05-30T22:24:28.563Z</time>
      </trkpt>
      <trkpt lat="49.23707" lon="1.41771">
        <ele>151.72758483887</ele>
        <time>2019-05-30T22:24:31.034Z</time>
      </trkpt>
      <trkpt lat="49.23691" lon="1.41673">
        <ele>151.34831237793</ele>
        <time>2019-05-30T22:24:33.518Z</time>
      </trkpt>
      <trkpt lat="49.23684" lon="1.41604">
        <ele>151.67504882812</ele>
        <time>2019-05-30T22:24:36.011Z</time>
      </trkpt>
      <trkpt lat="49.23678" lon="1.41611">
        <ele>151.66305541992</ele>
        <time>2019-05-30T22:24:38.506Z</time>
      </trkpt>
      <trkpt lat="49.23672" lon="1.41612">
        <ele>151.72303771973</ele>
        <time>2019-05-30T22:24:41.002Z</time>
      </trkpt>
      <trkpt lat="49.23623" lon="1.41612">
        <ele>152.31094360352</ele>
        <time>2019-05-30T22:24:43.508Z</time>
      </trkpt>
      <trkpt lat="49.23554" lon="1.41606">
        <ele>151.62364196777</ele>
        <time>2019-05-30T22:24:46.027Z</time>
      </trkpt>
      <trkpt lat="49.23485" lon="1.41594">
        <ele>150.78321838379</ele>
        <time>2019-05-30T22:24:48.560Z</time>
      </trkpt>
      <trkpt lat="49.23459" lon="1.41595">
        <ele>150.83929443359</ele>
        <time>2019-05-30T22:24:51.098Z</time>
      </trkpt>
      <trkpt lat="49.23411" lon="1.4159">
        <ele>150.58479309082</ele>
        <time>2019-05-30T22:24:53.646Z</time>
      </trkpt>
      <trkpt lat="49.23387" lon="1.41592">
        <ele>150.3207244873</ele>
        <time>2019-05-30T22:24:56.199Z</time>
      </trkpt>
      <trkpt lat="49.23349" lon="1.4159">
        <ele>150.77395629883</ele>
        <time>2019-05-30T22:24:58.760Z</time>
      </trkpt>
      <trkpt lat="49.23312" lon="1.41595">
        <ele>152.16572570801</ele>
        <time>2019-05-30T22:25:01.328Z</time>
      </trkpt>
      <trkpt lat="49.23282" lon="1.41608">
        <ele>151.97462463379</ele>
        <time>2019-05-30T22:25:03.902Z</time>
      </trkpt>
      <trkpt lat="49.23268" lon="1.41612">
        <ele>151.74772644043</ele>
        <time>2019-05-30T22:25:06.479Z</time>
      </trkpt>
      <trkpt lat="49.23255" lon="1.41612">
        <ele>151.59175109863</ele>
        <time>2019-05-30T22:25:09.059Z</time>
      </trkpt>
      <trkpt lat="49.23198" lon="1.41585">
        <ele>151.34825134277</ele>
        <time>2019-05-30T22:25:11.651Z</time>
      </trkpt>
      <trkpt lat="49.23173" lon="1.4158">
        <ele>152.01121520996</ele>
        <time>2019-05-30T22:25:14.248Z</time>
      </trkpt>
      <trkpt lat="49.23119" lon="1.41564">
        <ele>153.91334533691</ele>
        <time>2019-05-30T22:25:16.856Z</time>
      </trkpt>
      <trkpt lat="49.23079" lon="1.41559">
        <ele>154.45127868652</ele>
        <time>2019-05-30T22:25:19.472Z</time>
      </trkpt>
      <trkpt lat="49.23065" lon="1.41554">
        <ele>154.81121826172</ele>
        <time>2019-05-30T22:25:22.091Z</time>
      </trkpt>
      <trkpt lat="49.23023" lon="1.4155">
        <ele>155.45127868652</ele>
        <time>2019-05-30T22:25:24.718Z</time>
      </trkpt>
      <trkpt lat="49.22985" lon="1.41543">
        <ele>158.23481750488</ele>
        <time>2019-05-30T22:25:27.353Z</time>
      </trkpt>
      <trkpt lat="49.22949" lon="1.41543">
        <ele>160.39445495605</ele>
        <time>2019-05-30T22:25:29.995Z</time>
      </trkpt>
      <trkpt lat="49.22899" lon="1.41554">
        <ele>160.52195739746</ele>
        <time>2019-05-30T22:25:32.647Z</time>
      </trkpt>
      <trkpt lat="49.22879" lon="1.41563">
        <ele>160.67793273926</ele>
        <time>2019-05-30T22:25:35.303Z</time>
      </trkpt>
      <trkpt lat="49.22832" lon="1.41591">
        <ele>159.50970458984</ele>
        <time>2019-05-30T22:25:37.969Z</time>
      </trkpt>
      <trkpt lat="49.22806" lon="1.41598">
        <ele>159.11763000488</ele>
        <time>2019-05-30T22:25:40.641Z</time>
      </trkpt>
      <trkpt lat="49.22743" lon="1.41603">
        <ele>156.20623779297</ele>
        <time>2019-05-30T22:25:43.325Z</time>
      </trkpt>
      <trkpt lat="49.2265" lon="1.41587">
        <ele>153.70721435547</ele>
        <time>2019-05-30T22:25:46.028Z</time>
      </trkpt>
      <trkpt lat="49.22619" lon="1.41594">
        <ele>152.65528869629</ele>
        <time>2019-05-30T22:25:48.737Z</time>
      </trkpt>
      <trkpt lat="49.226" lon="1.41603">
        <ele>152.8384552002</ele>
        <time>2019-05-30T22:25:51.450Z</time>
      </trkpt>
      <trkpt lat="49.22558" lon="1.41657">
        <ele>153.84788513184</ele>
        <time>2019-05-30T22:25:54.174Z</time>
      </trkpt>
      <trkpt lat="49.22507" lon="1.41715">
        <ele>151.79647827148</ele>
        <time>2019-05-30T22:25:56.911Z</time>
      </trkpt>
      <trkpt lat="49.22499" lon="1.41715">
        <ele>151.79647827148</ele>
        <time>2019-05-30T22:25:59.649Z</time>
      </trkpt>
      <trkpt lat="49.22479" lon="1.41705">
        <ele>151.67649841309</ele>
        <time>2019-05-30T22:26:02.392Z</time>
      </trkpt>
      <trkpt lat="49.22441" lon="1.41671">
        <ele>151.26856994629</ele>
        <time>2019-05-30T22:26:05.144Z</time>
      </trkpt>
      <trkpt lat="49.22424" lon="1.41651">
        <ele>151.02861022949</ele>
        <time>2019-05-30T22:26:07.900Z</time>
      </trkpt>
      <trkpt lat="49.22383" lon="1.41611">
        <ele>150.09736633301</ele>
        <time>2019-05-30T22:26:10.666Z</time>
      </trkpt>
      <trkpt lat="49.22331" lon="1.41578">
        <ele>149.67854309082</ele>
        <time>2019-05-30T22:26:13.443Z</time>
      </trkpt>
      <trkpt lat="49.22319" lon="1.41573">
        <ele>149.70252990723</ele>
        <time>2019-05-30T22:26:16.222Z</time>
      </trkpt>
      <trkpt lat="49.22312" lon="1.41564">
        <ele>149.6009979248</ele>
        <time>2019-05-30T22:26:19.003Z</time>
      </trkpt>
      <trkpt lat="49.22315" lon="1.41539">
        <ele>149.56500244141</ele>
        <time>2019-05-30T22:26:21.787Z</time>
      </trkpt>
      <trkpt lat="49.22357" lon="1.41448">
        <ele>148.24711608887</ele>
        <time>2019-05-30T22:26:24.586Z</time>
      </trkpt>
      <trkpt lat="49.22356" lon="1.41428">
        <ele>147.77919006348</ele>
        <time>2019-05-30T22:26:27.388Z</time>
      </trkpt>
      <trkpt lat="49.22348" lon="1.41411">
        <ele>147.46723937988</ele>
        <time>2019-05-30T22:26:30.192Z</time>
      </trkpt>
      <trkpt lat="49.2234" lon="1.41402">
        <ele>147.34725952148</ele>
        <time>2019-05-30T22:26:32.998Z</time>
      </trkpt>
      <trkpt lat="49.22308" lon="1.4138">
        <ele>147.42614746094</ele>
        <time>2019-05-30T22:26:35.811Z</time>
      </trkpt>
      <trkpt lat="49.22295" lon="1.41377">
        <ele>147.54612731934</ele>
        <time>2019-05-30T22:26:38.627Z</time>
      </trkpt>
      <trkpt lat="49.22291" lon="1.41381">
        <ele>147.64210510254</ele>
        <time>2019-05-30T22:26:41.444Z</time>
      </trkpt>
      <trkpt lat="49.22293" lon="1.41378">
        <ele>147.58210754395</ele>
        <time>2019-05-30T22:26:44.262Z</time>
      </trkpt>
      <trkpt lat="49.22284" lon="1.4137">
        <ele>147.59411621094</ele>
        <time>2019-05-30T22:26:47.082Z</time>
      </trkpt>
      <trkpt lat="49.22277" lon="1.41359">
        <ele>147.52519226074</ele>
        <time>2019-05-30T22:26:49.904Z</time>
      </trkpt>
      <trkpt lat="49.22233" lon="1.41352">
        <ele>147.44120788574</ele>
        <time>2019-05-30T22:26:52.735Z</time>
      </trkpt>
      <trkpt lat="49.22217" lon="1.41348">
        <ele>147.25918579102</ele>
        <time>2019-05-30T22:26:55.569Z</time>
      </trkpt>
      <trkpt lat="49.22201" lon="1.4134">
        <ele>147.06721496582</ele>
        <time>2019-05-30T22:26:58.406Z</time>
      </trkpt>
      <trkpt lat="49.22179" lon="1.41318">
        <ele>147</ele>
        <time>2019-05-30T22:27:01.248Z</time>
      </trkpt>
      <trkpt lat="49.22169" lon="1.41302">
        <ele>146.84130859375</ele>
        <time>2019-05-30T22:27:04.093Z</time>
      </trkpt>
      <trkpt lat="49.22158" lon="1.41273">
        <ele>146.49336242676</ele>
        <time>2019-05-30T22:27:06.943Z</time>
      </trkpt>
      <trkpt lat="49.22155" lon="1.41257">
        <ele>146.30139160156</ele>
        <time>2019-05-30T22:27:09.795Z</time>
      </trkpt>
      <trkpt lat="49.2215" lon="1.41196">
        <ele>145.13902282715</ele>
        <time>2019-05-30T22:27:12.655Z</time>
      </trkpt>
      <trkpt lat="49.22155" lon="1.41132">
        <ele>143.80163574219</ele>
        <time>2019-05-30T22:27:15.523Z</time>
      </trkpt>
      <trkpt lat="49.22168" lon="1.41038">
        <ele>141.00508117676</ele>
        <time>2019-05-30T22:27:18.404Z</time>
      </trkpt>
      <trkpt lat="49.22163" lon="1.41002">
        <ele>141</ele>
        <time>2019-05-30T22:27:21.290Z</time>
      </trkpt>
      <trkpt lat="49.22153" lon="1.40964">
        <ele>141.21401977539</ele>
        <time>2019-05-30T22:27:24.181Z</time>
      </trkpt>
      <trkpt lat="49.22081" lon="1.40774">
        <ele>141.74508666992</ele>
        <time>2019-05-30T22:27:27.101Z</time>
      </trkpt>
      <trkpt lat="49.22049" lon="1.40709">
        <ele>142.23944091797</ele>
        <time>2019-05-30T22:27:30.032Z</time>
      </trkpt>
      <trkpt lat="49.21916" lon="1.40495">
        <ele>140.35220336914</ele>
        <time>2019-05-30T22:27:33.001Z</time>
      </trkpt>
      <trkpt lat="49.21896" lon="1.40475">
        <ele>140.59216308594</ele>
        <time>2019-05-30T22:27:35.975Z</time>
      </trkpt>
      <trkpt lat="49.21879" lon="1.4047">
        <ele>140.79614257812</ele>
        <time>2019-05-30T22:27:38.953Z</time>
      </trkpt>
      <trkpt lat="49.21848" lon="1.40471">
        <ele>141.03903198242</ele>
        <time>2019-05-30T22:27:41.937Z</time>
      </trkpt>
      <trkpt lat="49.21821" lon="1.40479">
        <ele>141.45896911621</ele>
        <time>2019-05-30T22:27:44.926Z</time>
      </trkpt>
      <trkpt lat="49.21793" lon="1.40491">
        <ele>141.9388885498</ele>
        <time>2019-05-30T22:27:47.921Z</time>
      </trkpt>
      <trkpt lat="49.21748" lon="1.40524">
        <ele>142.36787414551</ele>
        <time>2019-05-30T22:27:50.926Z</time>
      </trkpt>
      <trkpt lat="49.21732" lon="1.40533">
        <ele>142.5598449707</ele>
        <time>2019-05-30T22:27:53.935Z</time>
      </trkpt>
      <trkpt lat="49.21726" lon="1.40535">
        <ele>142.6318359375</ele>
        <time>2019-05-30T22:27:56.945Z</time>
      </trkpt>
      <trkpt lat="49.21711" lon="1.40525">
        <ele>142.8117980957</ele>
        <time>2019-05-30T22:27:59.958Z</time>
      </trkpt>
      <trkpt lat="49.21688" lon="1.4049">
        <ele>143</ele>
        <time>2019-05-30T22:28:02.978Z</time>
      </trkpt>
      <trkpt lat="49.21616" lon="1.40399">
        <ele>142.95872497559</ele>
        <time>2019-05-30T22:28:06.016Z</time>
      </trkpt>
      <trkpt lat="49.21485" lon="1.40219">
        <ele>144.23931884766</ele>
        <time>2019-05-30T22:28:09.090Z</time>
      </trkpt>
      <trkpt lat="49.21446" lon="1.40168">
        <ele>146.83088684082</ele>
        <time>2019-05-30T22:28:12.174Z</time>
      </trkpt>
      <trkpt lat="49.21415" lon="1.40133">
        <ele>149.27398681641</ele>
        <time>2019-05-30T22:28:15.266Z</time>
      </trkpt>
      <trkpt lat="49.21401" lon="1.40109">
        <ele>150.06585693359</ele>
        <time>2019-05-30T22:28:18.362Z</time>
      </trkpt>
      <trkpt lat="49.21392" lon="1.40087">
        <ele>150.75086975098</ele>
        <time>2019-05-30T22:28:21.461Z</time>
      </trkpt>
      <trkpt lat="49.2137" lon="1.4006">
        <ele>151.62559509277</ele>
        <time>2019-05-30T22:28:24.566Z</time>
      </trkpt>
      <trkpt lat="49.2134" lon="1.40039">
        <ele>151.85266113281</ele>
        <time>2019-05-30T22:28:27.677Z</time>
      </trkpt>
      <trkpt lat="49.21329" lon="1.40028">
        <ele>151.85266113281</ele>
        <time>2019-05-30T22:28:30.791Z</time>
      </trkpt>
      <trkpt lat="49.21298" lon="1.39994">
        <ele>151.74467468262</ele>
        <time>2019-05-30T22:28:33.913Z</time>
      </trkpt>
      <trkpt lat="49.21295" lon="1.39987">
        <ele>151.60069274902</ele>
        <time>2019-05-30T22:28:37.036Z</time>
      </trkpt>
      <trkpt lat="49.21281" lon="1.3997">
        <ele>151.63275146484</ele>
        <time>2019-05-30T22:28:40.162Z</time>
      </trkpt>
      <trkpt lat="49.21254" lon="1.39954">
        <ele>151.33599853516</ele>
        <time>2019-05-30T22:28:43.294Z</time>
      </trkpt>
      <trkpt lat="49.21217" lon="1.39893">
        <ele>149.87223815918</ele>
        <time>2019-05-30T22:28:46.437Z</time>
      </trkpt>
      <trkpt lat="49.21198" lon="1.39834">
        <ele>148.45648193359</ele>
        <time>2019-05-30T22:28:49.589Z</time>
      </trkpt>
      <trkpt lat="49.21172" lon="1.39817">
        <ele>148.32727050781</ele>
        <time>2019-05-30T22:28:52.746Z</time>
      </trkpt>
      <trkpt lat="49.21161" lon="1.39802">
        <ele>148.41070556641</ele>
        <time>2019-05-30T22:28:55.906Z</time>
      </trkpt>
      <trkpt lat="49.21159" lon="1.39797">
        <ele>148.43469238281</ele>
        <time>2019-05-30T22:28:59.067Z</time>
      </trkpt>
      <trkpt lat="49.21159" lon="1.39773">
        <ele>148.29681396484</ele>
        <time>2019-05-30T22:29:02.231Z</time>
      </trkpt>
      <trkpt lat="49.21161" lon="1.39762">
        <ele>147.96086120605</ele>
        <time>2019-05-30T22:29:05.397Z</time>
      </trkpt>
      <trkpt lat="49.2116" lon="1.39731">
        <ele>147.25297546387</ele>
        <time>2019-05-30T22:29:08.567Z</time>
      </trkpt>
      <trkpt lat="49.21162" lon="1.39723">
        <ele>146.98902893066</ele>
        <time>2019-05-30T22:29:11.738Z</time>
      </trkpt>
      <trkpt lat="49.21199" lon="1.39634">
        <ele>139.0030670166</ele>
        <time>2019-05-30T22:29:14.923Z</time>
      </trkpt>
      <trkpt lat="49.21212" lon="1.39623">
        <ele>133.95191955566</ele>
        <time>2019-05-30T22:29:18.111Z</time>
      </trkpt>
      <trkpt lat="49.21255" lon="1.39566">
        <ele>112.02883148193</ele>
        <time>2019-05-30T22:29:21.310Z</time>
      </trkpt>
      <trkpt lat="49.21261" lon="1.39549">
        <ele>108.61675262451</ele>
        <time>2019-05-30T22:29:24.512Z</time>
      </trkpt>
      <trkpt lat="49.21263" lon="1.39519">
        <ele>107.06558990479</ele>
        <time>2019-05-30T22:29:27.718Z</time>
      </trkpt>
      <trkpt lat="49.21266" lon="1.39511">
        <ele>105.6858215332</ele>
        <time>2019-05-30T22:29:30.925Z</time>
      </trkpt>
      <trkpt lat="49.21275" lon="1.39499">
        <ele>101.83445739746</ele>
        <time>2019-05-30T22:29:34.134Z</time>
      </trkpt>
      <trkpt lat="49.21283" lon="1.39479">
        <ele>98.642562866211</ele>
        <time>2019-05-30T22:29:37.346Z</time>
      </trkpt>
      <trkpt lat="49.213" lon="1.39453">
        <ele>93.231468200684</ele>
        <time>2019-05-30T22:29:40.563Z</time>
      </trkpt>
      <trkpt lat="49.21296" lon="1.39418">
        <ele>94.011337280273</ele>
        <time>2019-05-30T22:29:43.785Z</time>
      </trkpt>
      <trkpt lat="49.21307" lon="1.39379">
        <ele>86.933502197266</ele>
        <time>2019-05-30T22:29:47.012Z</time>
      </trkpt>
      <trkpt lat="49.2131" lon="1.39317">
        <ele>81.358848571777</ele>
        <time>2019-05-30T22:29:50.247Z</time>
      </trkpt>
      <trkpt lat="49.21319" lon="1.39292">
        <ele>72.841026306152</ele>
        <time>2019-05-30T22:29:53.486Z</time>
      </trkpt>
      <trkpt lat="49.21323" lon="1.39251">
        <ele>65.243270874023</ele>
        <time>2019-05-30T22:29:56.731Z</time>
      </trkpt>
      <trkpt lat="49.21322" lon="1.39235">
        <ele>63.827503204346</ele>
        <time>2019-05-30T22:29:59.978Z</time>
      </trkpt>
      <trkpt lat="49.21315" lon="1.39205">
        <ele>59.586631774902</ele>
        <time>2019-05-30T22:30:03.229Z</time>
      </trkpt>
      <trkpt lat="49.21312" lon="1.39165">
        <ele>53.198795318604</ele>
        <time>2019-05-30T22:30:06.485Z</time>
      </trkpt>
      <trkpt lat="49.21306" lon="1.39153">
        <ele>52.982830047607</ele>
        <time>2019-05-30T22:30:09.743Z</time>
      </trkpt>
      <trkpt lat="49.21295" lon="1.39147">
        <ele>54.42024230957</ele>
        <time>2019-05-30T22:30:13.004Z</time>
      </trkpt>
      <trkpt lat="49.21264" lon="1.39146">
        <ele>59.44900894165</ele>
        <time>2019-05-30T22:30:16.271Z</time>
      </trkpt>
      <trkpt lat="49.21238" lon="1.39123">
        <ele>57.913261413574</ele>
        <time>2019-05-30T22:30:19.544Z</time>
      </trkpt>
      <trkpt lat="49.21186" lon="1.39103">
        <ele>60.013835906982</ele>
        <time>2019-05-30T22:30:22.828Z</time>
      </trkpt>
      <trkpt lat="49.21141" lon="1.39081">
        <ele>59.041999816895</ele>
        <time>2019-05-30T22:30:26.121Z</time>
      </trkpt>
      <trkpt lat="49.21041" lon="1.39071">
        <ele>62.174167633057</ele>
        <time>2019-05-30T22:30:29.434Z</time>
      </trkpt>
      <trkpt lat="49.20991" lon="1.39071">
        <ele>61.795825958252</ele>
        <time>2019-05-30T22:30:32.757Z</time>
      </trkpt>
      <trkpt lat="49.20976" lon="1.39069">
        <ele>60.883979797363</ele>
        <time>2019-05-30T22:30:36.083Z</time>
      </trkpt>
      <trkpt lat="49.20956" lon="1.3906">
        <ele>58.502624511719</ele>
        <time>2019-05-30T22:30:39.413Z</time>
      </trkpt>
      <trkpt lat="49.20938" lon="1.39048">
        <ele>56.716533660889</ele>
        <time>2019-05-30T22:30:42.747Z</time>
      </trkpt>
      <trkpt lat="49.20844" lon="1.38998">
        <ele>54.301509857178</ele>
        <time>2019-05-30T22:30:46.101Z</time>
      </trkpt>
      <trkpt lat="49.20796" lon="1.38981">
        <ele>57.061279296875</ele>
        <time>2019-05-30T22:30:49.465Z</time>
      </trkpt>
      <trkpt lat="49.20766" lon="1.38975">
        <ele>59.55638885498</ele>
        <time>2019-05-30T22:30:52.835Z</time>
      </trkpt>
      <trkpt lat="49.20747" lon="1.38968">
        <ele>60.888164520264</ele>
        <time>2019-05-30T22:30:56.209Z</time>
      </trkpt>
      <trkpt lat="49.20683" lon="1.38923">
        <ele>60.755805969238</ele>
        <time>2019-05-30T22:30:59.597Z</time>
      </trkpt>
      <trkpt lat="49.20671" lon="1.38918">
        <ele>60.491847991943</ele>
        <time>2019-05-30T22:31:02.988Z</time>
      </trkpt>
      <trkpt lat="49.20621" lon="1.38908">
        <ele>61.242568969727</ele>
        <time>2019-05-30T22:31:06.389Z</time>
      </trkpt>
      <trkpt lat="49.20588" lon="1.38898">
        <ele>58.844543457031</ele>
        <time>2019-05-30T22:31:09.796Z</time>
      </trkpt>
      <trkpt lat="49.20514" lon="1.38869">
        <ele>52.857540130615</ele>
        <time>2019-05-30T22:31:13.219Z</time>
      </trkpt>
      <trkpt lat="49.20452" lon="1.38837">
        <ele>46.827457427979</ele>
        <time>2019-05-30T22:31:16.655Z</time>
      </trkpt>
      <trkpt lat="49.20397" lon="1.38818">
        <ele>45.768516540527</ele>
        <time>2019-05-30T22:31:20.102Z</time>
      </trkpt>
      <trkpt lat="49.20378" lon="1.38806">
        <ele>45.382305145264</ele>
        <time>2019-05-30T22:31:23.553Z</time>
      </trkpt>
      <trkpt lat="49.20376" lon="1.38799">
        <ele>45.070358276367</ele>
        <time>2019-05-30T22:31:27.005Z</time>
      </trkpt>
      <trkpt lat="49.20387" lon="1.38769">
        <ele>43.49861907959</ele>
        <time>2019-05-30T22:31:30.462Z</time>
      </trkpt>
      <trkpt lat="49.20388" lon="1.38759">
        <ele>43.006702423096</ele>
        <time>2019-05-30T22:31:33.920Z</time>
      </trkpt>
      <trkpt lat="49.20365" lon="1.38741">
        <ele>42.418800354004</ele>
        <time>2019-05-30T22:31:37.383Z</time>
      </trkpt>
      <trkpt lat="49.2033" lon="1.3872">
        <ele>43.979598999023</ele>
        <time>2019-05-30T22:31:40.854Z</time>
      </trkpt>
      <trkpt lat="49.2028" lon="1.38678">
        <ele>45.659317016602</ele>
        <time>2019-05-30T22:31:44.336Z</time>
      </trkpt>
      <trkpt lat="49.20262" lon="1.38667">
        <ele>46.511177062988</ele>
        <time>2019-05-30T22:31:47.822Z</time>
      </trkpt>
      <trkpt lat="49.20219" lon="1.38667">
        <ele>50.122573852539</ele>
        <time>2019-05-30T22:31:51.317Z</time>
      </trkpt>
      <trkpt lat="49.20206" lon="1.38665">
        <ele>51.094409942627</ele>
        <time>2019-05-30T22:31:54.814Z</time>
      </trkpt>
      <trkpt lat="49.20151" lon="1.38646">
        <ele>53.440307617188</ele>
        <time>2019-05-30T22:31:58.322Z</time>
      </trkpt>
      <trkpt lat="49.20084" lon="1.38645">
        <ele>56.328628540039</ele>
        <time>2019-05-30T22:32:01.844Z</time>
      </trkpt>
      <trkpt lat="49.20059" lon="1.38648">
        <ele>57.252471923828</ele>
        <time>2019-05-30T22:32:05.371Z</time>
      </trkpt>
      <trkpt lat="49.20017" lon="1.38658">
        <ele>58.984359741211</ele>
        <time>2019-05-30T22:32:08.906Z</time>
      </trkpt>
      <trkpt lat="49.19985" lon="1.3867">
        <ele>60.616088867188</ele>
        <time>2019-05-30T22:32:12.448Z</time>
      </trkpt>
      <trkpt lat="49.19961" lon="1.38682">
        <ele>61.841003417969</ele>
        <time>2019-05-30T22:32:15.995Z</time>
      </trkpt>
      <trkpt lat="49.19976" lon="1.38669">
        <ele>60.760063171387</ele>
        <time>2019-05-30T22:32:19.546Z</time>
      </trkpt>
      <trkpt lat="49.19985" lon="1.38674">
        <ele>60.904037475586</ele>
        <time>2019-05-30T22:32:23.098Z</time>
      </trkpt>
      <trkpt lat="49.19966" lon="1.38633">
        <ele>58.589817047119</ele>
        <time>2019-05-30T22:32:26.657Z</time>
      </trkpt>
      <trkpt lat="49.19963" lon="1.38624">
        <ele>58.121894836426</ele>
        <time>2019-05-30T22:32:30.217Z</time>
      </trkpt>
      <trkpt lat="49.19962" lon="1.38608">
        <ele>57.186050415039</ele>
        <time>2019-05-30T22:32:33.779Z</time>
      </trkpt>
      <trkpt lat="49.19966" lon="1.38592">
        <ele>56.130226135254</ele>
        <time>2019-05-30T22:32:37.344Z</time>
      </trkpt>
      <trkpt lat="49.19981" lon="1.38555">
        <ele>51.824020385742</ele>
        <time>2019-05-30T22:32:40.914Z</time>
      </trkpt>
      <trkpt lat="49.19993" lon="1.38533">
        <ele>49.640384674072</ele>
        <time>2019-05-30T22:32:44.488Z</time>
      </trkpt>
      <trkpt lat="49.20015" lon="1.38474">
        <ele>46.107376098633</ele>
        <time>2019-05-30T22:32:48.071Z</time>
      </trkpt>
      <trkpt lat="49.20013" lon="1.38458">
        <ele>45.244766235352</ele>
        <time>2019-05-30T22:32:51.656Z</time>
      </trkpt>
      <trkpt lat="49.20003" lon="1.38442">
        <ele>44.716854095459</ele>
        <time>2019-05-30T22:32:55.244Z</time>
      </trkpt>
      <trkpt lat="49.19889" lon="1.38406">
        <ele>45.91487121582</ele>
        <time>2019-05-30T22:32:58.855Z</time>
      </trkpt>
      <trkpt lat="49.19815" lon="1.38378">
        <ele>46.920722961426</ele>
        <time>2019-05-30T22:33:02.482Z</time>
      </trkpt>
      <trkpt lat="49.19814" lon="1.38378">
        <ele>46.93286895752</ele>
        <time>2019-05-30T22:33:06.109Z</time>
      </trkpt>
      <trkpt lat="49.19814" lon="1.38378">
        <ele>46.933223724365</ele>
        <time>2019-05-30T22:33:09.736Z</time>
      </trkpt>
      <trkpt lat="49.19766" lon="1.38366">
        <ele>48.808849334717</ele>
        <time>2019-05-30T22:33:13.373Z</time>
      </trkpt>
      <trkpt lat="49.19732" lon="1.38353">
        <ele>49.918395996094</ele>
        <time>2019-05-30T22:33:17.017Z</time>
      </trkpt>
      <trkpt lat="49.19697" lon="1.38348">
        <ele>49.798416137695</ele>
        <time>2019-05-30T22:33:20.668Z</time>
      </trkpt>
      <trkpt lat="49.19627" lon="1.38328">
        <ele>49.318496704102</ele>
        <time>2019-05-30T22:33:24.333Z</time>
      </trkpt>
      <trkpt lat="49.19566" lon="1.38325">
        <ele>49.369762420654</ele>
        <time>2019-05-30T22:33:28.010Z</time>
      </trkpt>
      <trkpt lat="49.19524" lon="1.3831">
        <ele>48.654418945312</ele>
        <time>2019-05-30T22:33:31.696Z</time>
      </trkpt>
      <trkpt lat="49.19511" lon="1.38308">
        <ele>48.389041900635</ele>
        <time>2019-05-30T22:33:35.384Z</time>
      </trkpt>
      <trkpt lat="49.19443" lon="1.38282">
        <ele>46.129764556885</ele>
        <time>2019-05-30T22:33:39.086Z</time>
      </trkpt>
      <trkpt lat="49.19408" lon="1.38265">
        <ele>46.789653778076</ele>
        <time>2019-05-30T22:33:42.796Z</time>
      </trkpt>
      <trkpt lat="49.19356" lon="1.38249">
        <ele>47.500038146973</ele>
        <time>2019-05-30T22:33:46.516Z</time>
      </trkpt>
      <trkpt lat="49.19348" lon="1.38244">
        <ele>47.12809753418</ele>
        <time>2019-05-30T22:33:50.238Z</time>
      </trkpt>
      <trkpt lat="49.1928" lon="1.38111">
        <ele>39.667049407959</ele>
        <time>2019-05-30T22:33:53.982Z</time>
      </trkpt>
      <trkpt lat="49.19257" lon="1.38078">
        <ele>39.753711700439</ele>
        <time>2019-05-30T22:33:57.733Z</time>
      </trkpt>
      <trkpt lat="49.1924" lon="1.3804">
        <ele>40.294296264648</ele>
        <time>2019-05-30T22:34:01.490Z</time>
      </trkpt>
      <trkpt lat="49.1919" lon="1.37962">
        <ele>42.650463104248</ele>
        <time>2019-05-30T22:34:05.261Z</time>
      </trkpt>
      <trkpt lat="49.19176" lon="1.37927">
        <ele>41.894588470459</ele>
        <time>2019-05-30T22:34:09.037Z</time>
      </trkpt>
      <trkpt lat="49.19165" lon="1.37909">
        <ele>41.414669036865</ele>
        <time>2019-05-30T22:34:12.817Z</time>
      </trkpt>
      <trkpt lat="49.19148" lon="1.37888">
        <ele>40.874649047852</ele>
        <time>2019-05-30T22:34:16.601Z</time>
      </trkpt>
      <trkpt lat="49.19113" lon="1.37822">
        <ele>40.034790039062</ele>
        <time>2019-05-30T22:34:20.396Z</time>
      </trkpt>
      <trkpt lat="49.19089" lon="1.37781">
        <ele>39.591983795166</ele>
        <time>2019-05-30T22:34:24.198Z</time>
      </trkpt>
      <trkpt lat="49.19072" lon="1.37758">
        <ele>39.256042480469</ele>
        <time>2019-05-30T22:34:28.005Z</time>
      </trkpt>
      <trkpt lat="49.19043" lon="1.37698">
        <ele>39.33158493042</ele>
        <time>2019-05-30T22:34:31.822Z</time>
      </trkpt>
      <trkpt lat="49.19007" lon="1.37636">
        <ele>39.491214752197</ele>
        <time>2019-05-30T22:34:35.649Z</time>
      </trkpt>
      <trkpt lat="49.18998" lon="1.37613">
        <ele>39.161357879639</ele>
        <time>2019-05-30T22:34:39.480Z</time>
      </trkpt>
      <trkpt lat="49.1895" lon="1.37525">
        <ele>38</ele>
        <time>2019-05-30T22:34:43.326Z</time>
      </trkpt>
      <trkpt lat="49.18939" lon="1.37512">
        <ele>38.140514373779</ele>
        <time>2019-05-30T22:34:47.175Z</time>
      </trkpt>
      <trkpt lat="49.18908" lon="1.37458">
        <ele>39.163402557373</ele>
        <time>2019-05-30T22:34:51.033Z</time>
      </trkpt>
      <trkpt lat="49.18877" lon="1.37396">
        <ele>40.396625518799</ele>
        <time>2019-05-30T22:34:54.901Z</time>
      </trkpt>
      <trkpt lat="49.18843" lon="1.3734">
        <ele>39.832515716553</ele>
        <time>2019-05-30T22:34:58.779Z</time>
      </trkpt>
      <trkpt lat="49.18823" lon="1.37312">
        <ele>39.36986541748</ele>
        <time>2019-05-30T22:35:02.663Z</time>
      </trkpt>
      <trkpt lat="49.18793" lon="1.37255">
        <ele>37.678150177002</ele>
        <time>2019-05-30T22:35:06.557Z</time>
      </trkpt>
      <trkpt lat="49.18728" lon="1.37161">
        <ele>34.472747802734</ele>
        <time>2019-05-30T22:35:10.468Z</time>
      </trkpt>
      <trkpt lat="49.18796" lon="1.37262">
        <ele>37.894111633301</ele>
        <time>2019-05-30T22:35:14.398Z</time>
      </trkpt>
      <trkpt lat="49.188" lon="1.37273">
        <ele>38.242053985596</ele>
        <time>2019-05-30T22:35:18.330Z</time>
      </trkpt>
      <trkpt lat="49.18755" lon="1.37302">
        <ele>39.119312286377</ele>
        <time>2019-05-30T22:35:22.272Z</time>
      </trkpt>
      <trkpt lat="49.18737" lon="1.37318">
        <ele>39.588684082031</ele>
        <time>2019-05-30T22:35:26.218Z</time>
      </trkpt>
      <trkpt lat="49.18656" lon="1.37428">
        <ele>44.187789916992</ele>
        <time>2019-05-30T22:35:30.186Z</time>
      </trkpt>
      <trkpt lat="49.18619" lon="1.37472">
        <ele>48.083271026611</ele>
        <time>2019-05-30T22:35:34.163Z</time>
      </trkpt>
      <trkpt lat="49.18602" lon="1.37487">
        <ele>49.299999237061</ele>
        <time>2019-05-30T22:35:38.144Z</time>
      </trkpt>
      <trkpt lat="49.18593" lon="1.37483">
        <ele>48.904064178467</ele>
        <time>2019-05-30T22:35:42.127Z</time>
      </trkpt>
      <trkpt lat="49.1856" lon="1.37447">
        <ele>47.149532318115</ele>
        <time>2019-05-30T22:35:46.118Z</time>
      </trkpt>
      <trkpt lat="49.18541" lon="1.3743">
        <ele>46.309673309326</ele>
        <time>2019-05-30T22:35:50.113Z</time>
      </trkpt>
      <trkpt lat="49.18417" lon="1.37327">
        <ele>42.149250030518</ele>
        <time>2019-05-30T22:35:54.137Z</time>
      </trkpt>
      <trkpt lat="49.18357" lon="1.37271">
        <ele>41.583549499512</ele>
        <time>2019-05-30T22:35:58.175Z</time>
      </trkpt>
      <trkpt lat="49.18352" lon="1.37262">
        <ele>41.595546722412</ele>
        <time>2019-05-30T22:36:02.214Z</time>
      </trkpt>
      <trkpt lat="49.1835" lon="1.37252">
        <ele>41.523559570312</ele>
        <time>2019-05-30T22:36:06.255Z</time>
      </trkpt>
      <trkpt lat="49.18351" lon="1.37241">
        <ele>41.367584228516</ele>
        <time>2019-05-30T22:36:10.297Z</time>
      </trkpt>
      <trkpt lat="49.18358" lon="1.37215">
        <ele>40.734233856201</ele>
        <time>2019-05-30T22:36:14.343Z</time>
      </trkpt>
      <trkpt lat="49.18369" lon="1.3718">
        <ele>39.680206298828</ele>
        <time>2019-05-30T22:36:18.394Z</time>
      </trkpt>
      <trkpt lat="49.1839" lon="1.37129">
        <ele>38.430805206299</ele>
        <time>2019-05-30T22:36:22.453Z</time>
      </trkpt>
      <trkpt lat="49.18403" lon="1.37084">
        <ele>38</ele>
        <time>2019-05-30T22:36:26.518Z</time>
      </trkpt>
      <trkpt lat="49.18422" lon="1.3704">
        <ele>38</ele>
        <time>2019-05-30T22:36:30.590Z</time>
      </trkpt>
      <trkpt lat="49.18464" lon="1.36901">
        <ele>36.769306182861</ele>
        <time>2019-05-30T22:36:34.682Z</time>
      </trkpt>
      <trkpt lat="49.1849" lon="1.36827">
        <ele>34.300498962402</ele>
        <time>2019-05-30T22:36:38.785Z</time>
      </trkpt>
      <trkpt lat="49.18492" lon="1.368">
        <ele>34</ele>
        <time>2019-05-30T22:36:42.892Z</time>
      </trkpt>
      <trkpt lat="49.18476" lon="1.36693">
        <ele>33.542518615723</ele>
        <time>2019-05-30T22:36:47.013Z</time>
      </trkpt>
      <trkpt lat="49.18448" lon="1.36547">
        <ele>31.790809631348</ele>
        <time>2019-05-30T22:36:51.154Z</time>
      </trkpt>
      <trkpt lat="49.18437" lon="1.36456">
        <ele>30.906745910645</ele>
        <time>2019-05-30T22:36:55.307Z</time>
      </trkpt>
      <trkpt lat="49.18432" lon="1.36365">
        <ele>30.760417938232</ele>
        <time>2019-05-30T22:36:59.472Z</time>
      </trkpt>
      <trkpt lat="49.18433" lon="1.3633">
        <ele>30.328489303589</ele>
        <time>2019-05-30T22:37:03.642Z</time>
      </trkpt>
      <trkpt lat="49.18435" lon="1.363">
        <ele>30</ele>
        <time>2019-05-30T22:37:07.816Z</time>
      </trkpt>
      <trkpt lat="49.18444" lon="1.36248">
        <ele>30</ele>
        <time>2019-05-30T22:37:11.997Z</time>
      </trkpt>
      <trkpt lat="49.1844" lon="1.36238">
        <ele>30</ele>
        <time>2019-05-30T22:37:16.180Z</time>
      </trkpt>
      <trkpt lat="49.18428" lon="1.36224">
        <ele>29.830911636353</ele>
        <time>2019-05-30T22:37:20.366Z</time>
      </trkpt>
      <trkpt lat="49.18362" lon="1.3617">
        <ele>28.535127639771</ele>
        <time>2019-05-30T22:37:24.567Z</time>
      </trkpt>
      <trkpt lat="49.18332" lon="1.36139">
        <ele>28.353044509888</ele>
        <time>2019-05-30T22:37:28.775Z</time>
      </trkpt>
      <trkpt lat="49.18305" lon="1.36117">
        <ele>28.676990509033</ele>
        <time>2019-05-30T22:37:32.989Z</time>
      </trkpt>
      <trkpt lat="49.1828" lon="1.3609">
        <ele>28.976940155029</ele>
        <time>2019-05-30T22:37:37.209Z</time>
      </trkpt>
      <trkpt lat="49.18315" lon="1.35985">
        <ele>27.047933578491</ele>
        <time>2019-05-30T22:37:41.445Z</time>
      </trkpt>
      <trkpt lat="49.18325" lon="1.35943">
        <ele>26.96209526062</ele>
        <time>2019-05-30T22:37:45.686Z</time>
      </trkpt>
      <trkpt lat="49.18336" lon="1.35931">
        <ele>26.410186767578</ele>
        <time>2019-05-30T22:37:49.930Z</time>
      </trkpt>
      <trkpt lat="49.18338" lon="1.35921">
        <ele>26.122234344482</ele>
        <time>2019-05-30T22:37:54.175Z</time>
      </trkpt>
      <trkpt lat="49.18301" lon="1.35798">
        <ele>24.608615875244</ele>
        <time>2019-05-30T22:37:58.438Z</time>
      </trkpt>
      <trkpt lat="49.18288" lon="1.35761">
        <ele>23.720764160156</ele>
        <time>2019-05-30T22:38:02.707Z</time>
      </trkpt>
      <trkpt lat="49.18262" lon="1.35715">
        <ele>21.460903167725</ele>
        <time>2019-05-30T22:38:06.984Z</time>
      </trkpt>
      <trkpt lat="49.18231" lon="1.35685">
        <ele>18.521392822266</ele>
        <time>2019-05-30T22:38:11.268Z</time>
      </trkpt>
      <trkpt lat="49.18223" lon="1.35666">
        <ele>17.476188659668</ele>
        <time>2019-05-30T22:38:15.555Z</time>
      </trkpt>
      <trkpt lat="49.1821" lon="1.35646">
        <ele>16.099201202393</ele>
        <time>2019-05-30T22:38:19.846Z</time>
      </trkpt>
      <trkpt lat="49.1817" lon="1.35595">
        <ele>13.81312084198</ele>
        <time>2019-05-30T22:38:24.147Z</time>
      </trkpt>
      <trkpt lat="49.18114" lon="1.3553">
        <ele>11.947881698608</ele>
        <time>2019-05-30T22:38:28.462Z</time>
      </trkpt>
      <trkpt lat="49.18078" lon="1.35496">
        <ele>11.837104797363</ele>
        <time>2019-05-30T22:38:32.786Z</time>
      </trkpt>
      <trkpt lat="49.18007" lon="1.35438">
        <ele>9.9802398681641</ele>
        <time>2019-05-30T22:38:37.126Z</time>
      </trkpt>
      <trkpt lat="49.1796" lon="1.35405">
        <ele>8.4564943313599</ele>
        <time>2019-05-30T22:38:41.476Z</time>
      </trkpt>
      <trkpt lat="49.17914" lon="1.35368">
        <ele>9.8142881393433</ele>
        <time>2019-05-30T22:38:45.837Z</time>
      </trkpt>
      <trkpt lat="49.17893" lon="1.35348">
        <ele>11.050082206726</ele>
        <time>2019-05-30T22:38:50.203Z</time>
      </trkpt>
      <trkpt lat="49.17839" lon="1.35311">
        <ele>13.536115646362</ele>
        <time>2019-05-30T22:38:54.580Z</time>
      </trkpt>
      <trkpt lat="49.17737" lon="1.35235">
        <ele>15.491853713989</ele>
        <time>2019-05-30T22:38:58.980Z</time>
      </trkpt>
      <trkpt lat="49.17691" lon="1.35209">
        <ele>16.437505722046</ele>
        <time>2019-05-30T22:39:03.390Z</time>
      </trkpt>
      <trkpt lat="49.1768" lon="1.35211">
        <ele>16.125556945801</ele>
        <time>2019-05-30T22:39:07.802Z</time>
      </trkpt>
      <trkpt lat="49.17673" lon="1.35217">
        <ele>15.906804084778</ele>
        <time>2019-05-30T22:39:12.216Z</time>
      </trkpt>
      <trkpt lat="49.17671" lon="1.35225">
        <ele>15.786824226379</ele>
        <time>2019-05-30T22:39:16.631Z</time>
      </trkpt>
      <trkpt lat="49.17673" lon="1.35233">
        <ele>15.740274429321</ele>
        <time>2019-05-30T22:39:21.047Z</time>
      </trkpt>
      <trkpt lat="49.17677" lon="1.35237">
        <ele>15.788266181946</ele>
        <time>2019-05-30T22:39:25.464Z</time>
      </trkpt>
      <trkpt lat="49.17728" lon="1.35253">
        <ele>15.599835395813</ele>
        <time>2019-05-30T22:39:29.891Z</time>
      </trkpt>
      <trkpt lat="49.17814" lon="1.35335">
        <ele>13.637548446655</ele>
        <time>2019-05-30T22:39:34.339Z</time>
      </trkpt>
      <trkpt lat="49.17828" lon="1.35319">
        <ele>13.68554019928</ele>
        <time>2019-05-30T22:39:38.790Z</time>
      </trkpt>
      <trkpt lat="49.17842" lon="1.35285">
        <ele>13.582730293274</ele>
        <time>2019-05-30T22:39:43.246Z</time>
      </trkpt>
      <trkpt lat="49.17873" lon="1.35181">
        <ele>12.562296867371</ele>
        <time>2019-05-30T22:39:47.717Z</time>
      </trkpt>
      <trkpt lat="49.17905" lon="1.35094">
        <ele>10.879232406616</ele>
        <time>2019-05-30T22:39:52.202Z</time>
      </trkpt>
      <trkpt lat="49.17911" lon="1.35054">
        <ele>11.930607795715</ele>
        <time>2019-05-30T22:39:56.692Z</time>
      </trkpt>
      <trkpt lat="49.17922" lon="1.35016">
        <ele>12.122575759888</ele>
        <time>2019-05-30T22:40:01.187Z</time>
      </trkpt>
      <trkpt lat="49.17941" lon="1.34975">
        <ele>12.114308357239</ele>
        <time>2019-05-30T22:40:05.689Z</time>
      </trkpt>
      <trkpt lat="49.17956" lon="1.34917">
        <ele>12.223097801208</ele>
        <time>2019-05-30T22:40:10.199Z</time>
      </trkpt>
      <trkpt lat="49.17981" lon="1.34849">
        <ele>11.386050224304</ele>
        <time>2019-05-30T22:40:14.719Z</time>
      </trkpt>
      <trkpt lat="49.17989" lon="1.34815">
        <ele>10.810146331787</ele>
        <time>2019-05-30T22:40:19.244Z</time>
      </trkpt>
      <trkpt lat="49.18008" lon="1.3477">
        <ele>12.237092018127</ele>
        <time>2019-05-30T22:40:23.776Z</time>
      </trkpt>
      <trkpt lat="49.18026" lon="1.34717">
        <ele>15.883333206177</ele>
        <time>2019-05-30T22:40:28.316Z</time>
      </trkpt>
      <trkpt lat="49.1804" lon="1.34683">
        <ele>14.278215408325</ele>
        <time>2019-05-30T22:40:32.861Z</time>
      </trkpt>
      <trkpt lat="49.18056" lon="1.34653">
        <ele>12.651442527771</ele>
        <time>2019-05-30T22:40:37.411Z</time>
      </trkpt>
      <trkpt lat="49.18069" lon="1.34613">
        <ele>11.146301269531</ele>
        <time>2019-05-30T22:40:41.967Z</time>
      </trkpt>
      <trkpt lat="49.18088" lon="1.34568">
        <ele>13.719395637512</ele>
        <time>2019-05-30T22:40:46.530Z</time>
      </trkpt>
      <trkpt lat="49.18158" lon="1.34413">
        <ele>13.014472961426</ele>
        <time>2019-05-30T22:40:51.118Z</time>
      </trkpt>
      <trkpt lat="49.18173" lon="1.34386">
        <ele>13.316639900208</ele>
        <time>2019-05-30T22:40:55.711Z</time>
      </trkpt>
      <trkpt lat="49.18199" lon="1.34313">
        <ele>12.74388885498</ele>
        <time>2019-05-30T22:41:00.314Z</time>
      </trkpt>
      <trkpt lat="49.18247" lon="1.34213">
        <ele>12.797919273376</ele>
        <time>2019-05-30T22:41:04.934Z</time>
      </trkpt>
      <trkpt lat="49.18274" lon="1.3415">
        <ele>13.066251754761</ele>
        <time>2019-05-30T22:41:09.564Z</time>
      </trkpt>
      <trkpt lat="49.18298" lon="1.34109">
        <ele>12.265192985535</ele>
        <time>2019-05-30T22:41:14.201Z</time>
      </trkpt>
      <trkpt lat="49.18375" lon="1.33962">
        <ele>12.185647964478</ele>
        <time>2019-05-30T22:41:18.863Z</time>
      </trkpt>
      <trkpt lat="49.18376" lon="1.33947">
        <ele>12.125658035278</ele>
        <time>2019-05-30T22:41:23.527Z</time>
      </trkpt>
      <trkpt lat="49.18383" lon="1.33942">
        <ele>11.705728530884</ele>
        <time>2019-05-30T22:41:28.192Z</time>
      </trkpt>
      <trkpt lat="49.18396" lon="1.33913">
        <ele>11.832862854004</ele>
        <time>2019-05-30T22:41:32.862Z</time>
      </trkpt>
      <trkpt lat="49.18427" lon="1.3386">
        <ele>12.447816848755</ele>
        <time>2019-05-30T22:41:37.541Z</time>
      </trkpt>
      <trkpt lat="49.18449" lon="1.3383">
        <ele>12.604866981506</ele>
        <time>2019-05-30T22:41:42.226Z</time>
      </trkpt>
      <trkpt lat="49.18488" lon="1.33767">
        <ele>10.982704162598</ele>
        <time>2019-05-30T22:41:46.922Z</time>
      </trkpt>
      <trkpt lat="49.18512" lon="1.33737">
        <ele>14.078188896179</ele>
        <time>2019-05-30T22:41:51.624Z</time>
      </trkpt>
      <trkpt lat="49.18531" lon="1.33705">
        <ele>15.373105049133</ele>
        <time>2019-05-30T22:41:56.332Z</time>
      </trkpt>
      <trkpt lat="49.18556" lon="1.33677">
        <ele>13.945343017578</ele>
        <time>2019-05-30T22:42:01.046Z</time>
      </trkpt>
      <trkpt lat="49.18568" lon="1.3366">
        <ele>14.649047851562</ele>
        <time>2019-05-30T22:42:05.764Z</time>
      </trkpt>
      <trkpt lat="49.18672" lon="1.33563">
        <ele>16.228832244873</ele>
        <time>2019-05-30T22:42:10.506Z</time>
      </trkpt>
      <trkpt lat="49.18726" lon="1.33506">
        <ele>12.935039520264</ele>
        <time>2019-05-30T22:42:15.261Z</time>
      </trkpt>
      <trkpt lat="49.18829" lon="1.33442">
        <ele>12.410979270935</ele>
        <time>2019-05-30T22:42:20.038Z</time>
      </trkpt>
      <trkpt lat="49.18854" lon="1.33423">
        <ele>13.106863021851</ele>
        <time>2019-05-30T22:42:24.821Z</time>
      </trkpt>
      <trkpt lat="49.18862" lon="1.33419">
        <ele>13.17254447937</ele>
        <time>2019-05-30T22:42:29.606Z</time>
      </trkpt>
      <trkpt lat="49.18897" lon="1.33427">
        <ele>12.431879043579</ele>
        <time>2019-05-30T22:42:34.398Z</time>
      </trkpt>
      <trkpt lat="49.18919" lon="1.33427">
        <ele>12.167922973633</ele>
        <time>2019-05-30T22:42:39.194Z</time>
      </trkpt>
      <trkpt lat="49.1893" lon="1.33424">
        <ele>12.251909255981</ele>
        <time>2019-05-30T22:42:43.992Z</time>
      </trkpt>
      <trkpt lat="49.18963" lon="1.3341">
        <ele>12.952278137207</ele>
        <time>2019-05-30T22:42:48.797Z</time>
      </trkpt>
      <trkpt lat="49.18996" lon="1.33387">
        <ele>13.141355514526</ele>
        <time>2019-05-30T22:42:53.610Z</time>
      </trkpt>
      <trkpt lat="49.19044" lon="1.33363">
        <ele>12.885161399841</ele>
        <time>2019-05-30T22:42:58.433Z</time>
      </trkpt>
      <trkpt lat="49.19094" lon="1.33348">
        <ele>12.327391624451</ele>
        <time>2019-05-30T22:43:03.266Z</time>
      </trkpt>
      <trkpt lat="49.19095" lon="1.33348">
        <ele>12.333847045898</ele>
        <time>2019-05-30T22:43:08.099Z</time>
      </trkpt>
      <trkpt lat="49.19095" lon="1.33348">
        <ele>12.334119796753</ele>
        <time>2019-05-30T22:43:12.932Z</time>
      </trkpt>
      <trkpt lat="49.19104" lon="1.33347">
        <ele>12.310124397278</ele>
        <time>2019-05-30T22:43:17.767Z</time>
      </trkpt>
      <trkpt lat="49.19103" lon="1.33349">
        <ele>12.154150009155</ele>
        <time>2019-05-30T22:43:22.602Z</time>
      </trkpt>
      <trkpt lat="49.19103" lon="1.33347">
        <ele>12.322121620178</ele>
        <time>2019-05-30T22:43:27.437Z</time>
      </trkpt>
      <trkpt lat="49.19107" lon="1.33346">
        <ele>12.358116149902</ele>
        <time>2019-05-30T22:43:32.273Z</time>
      </trkpt>
      <trkpt lat="49.19162" lon="1.33338">
        <ele>14.239688873291</ele>
        <time>2019-05-30T22:43:37.120Z</time>
      </trkpt>
      <trkpt lat="49.19192" lon="1.33339">
        <ele>15.547471046448</ele>
        <time>2019-05-30T22:43:41.973Z</time>
      </trkpt>
      <trkpt lat="49.19215" lon="1.33343">
        <ele>15.158612251282</ele>
        <time>2019-05-30T22:43:46.831Z</time>
      </trkpt>
      <trkpt lat="49.19237" lon="1.3335">
        <ele>14.666427612305</ele>
        <time>2019-05-30T22:43:51.693Z</time>
      </trkpt>
      <trkpt lat="49.19252" lon="1.33351">
        <ele>15.542282104492</ele>
        <time>2019-05-30T22:43:56.558Z</time>
      </trkpt>
      <trkpt lat="49.19334" lon="1.3337">
        <ele>17.569944381714</ele>
        <time>2019-05-30T22:44:01.440Z</time>
      </trkpt>
      <trkpt lat="49.19383" lon="1.33387">
        <ele>16.736499786377</ele>
        <time>2019-05-30T22:44:06.332Z</time>
      </trkpt>
      <trkpt lat="49.19456" lon="1.33419">
        <ele>14.650414466858</ele>
        <time>2019-05-30T22:44:11.239Z</time>
      </trkpt>
      <trkpt lat="49.195" lon="1.33442">
        <ele>13.032039642334</ele>
        <time>2019-05-30T22:44:16.156Z</time>
      </trkpt>
      <trkpt lat="49.19572" lon="1.33487">
        <ele>13.370572090149</ele>
        <time>2019-05-30T22:44:21.088Z</time>
      </trkpt>
      <trkpt lat="49.19646" lon="1.33541">
        <ele>16.250091552734</ele>
        <time>2019-05-30T22:44:26.037Z</time>
      </trkpt>
      <trkpt lat="49.19695" lon="1.33572">
        <ele>18.838890075684</ele>
        <time>2019-05-30T22:44:30.996Z</time>
      </trkpt>
      <trkpt lat="49.19713" lon="1.33589">
        <ele>16.391298294067</ele>
        <time>2019-05-30T22:44:35.960Z</time>
      </trkpt>
      <trkpt lat="49.19725" lon="1.33595">
        <ele>15.527441978455</ele>
        <time>2019-05-30T22:44:40.926Z</time>
      </trkpt>
      <trkpt lat="49.19798" lon="1.33652">
        <ele>12.164133071899</ele>
        <time>2019-05-30T22:44:45.908Z</time>
      </trkpt>
      <trkpt lat="49.19826" lon="1.33681">
        <ele>14.347769737244</ele>
        <time>2019-05-30T22:44:50.897Z</time>
      </trkpt>
      <trkpt lat="49.19866" lon="1.33713">
        <ele>18.635875701904</ele>
        <time>2019-05-30T22:44:55.895Z</time>
      </trkpt>
      <trkpt lat="49.1988" lon="1.3373">
        <ele>17.963987350464</ele>
        <time>2019-05-30T22:45:00.897Z</time>
      </trkpt>
      <trkpt lat="49.19906" lon="1.33754">
        <ele>16.025217056274</ele>
        <time>2019-05-30T22:45:05.905Z</time>
      </trkpt>
      <trkpt lat="49.19938" lon="1.33789">
        <ele>12.197854042053</ele>
        <time>2019-05-30T22:45:10.921Z</time>
      </trkpt>
      <trkpt lat="49.19984" lon="1.33843">
        <ele>9.7470207214355</ele>
        <time>2019-05-30T22:45:15.948Z</time>
      </trkpt>
      <trkpt lat="49.20105" lon="1.33997">
        <ele>15.682020187378</ele>
        <time>2019-05-30T22:45:21.007Z</time>
      </trkpt>
      <trkpt lat="49.20206" lon="1.34133">
        <ele>15.263188362122</ele>
        <time>2019-05-30T22:45:26.093Z</time>
      </trkpt>
      <trkpt lat="49.20276" lon="1.34242">
        <ele>14.520846366882</ele>
        <time>2019-05-30T22:45:31.199Z</time>
      </trkpt>
      <trkpt lat="49.20291" lon="1.3427">
        <ele>13.419158935547</ele>
        <time>2019-05-30T22:45:36.310Z</time>
      </trkpt>
      <trkpt lat="49.20346" lon="1.34352">
        <ele>13.189023017883</ele>
        <time>2019-05-30T22:45:41.436Z</time>
      </trkpt>
      <trkpt lat="49.20383" lon="1.34416">
        <ele>13.241905212402</ele>
        <time>2019-05-30T22:45:46.573Z</time>
      </trkpt>
      <trkpt lat="49.20504" lon="1.34611">
        <ele>16.983428955078</ele>
        <time>2019-05-30T22:45:51.746Z</time>
      </trkpt>
      <trkpt lat="49.20532" lon="1.34663">
        <ele>16.924745559692</ele>
        <time>2019-05-30T22:45:56.927Z</time>
      </trkpt>
      <trkpt lat="49.20613" lon="1.34828">
        <ele>18.696294784546</ele>
        <time>2019-05-30T22:46:02.135Z</time>
      </trkpt>
      <trkpt lat="49.20628" lon="1.34848">
        <ele>18.576314926147</ele>
        <time>2019-05-30T22:46:07.347Z</time>
      </trkpt>
      <trkpt lat="49.20638" lon="1.34868">
        <ele>18.336355209351</ele>
        <time>2019-05-30T22:46:12.563Z</time>
      </trkpt>
      <trkpt lat="49.20644" lon="1.3489">
        <ele>17.952419281006</ele>
        <time>2019-05-30T22:46:17.782Z</time>
      </trkpt>
      <trkpt lat="49.20685" lon="1.34965">
        <ele>16.326581954956</ele>
        <time>2019-05-30T22:46:23.014Z</time>
      </trkpt>
      <trkpt lat="49.20702" lon="1.35002">
        <ele>15.738852500916</ele>
        <time>2019-05-30T22:46:28.252Z</time>
      </trkpt>
      <trkpt lat="49.20753" lon="1.35145">
        <ele>13.724501609802</ele>
        <time>2019-05-30T22:46:33.511Z</time>
      </trkpt>
      <trkpt lat="49.20787" lon="1.35236">
        <ele>14.243693351746</ele>
        <time>2019-05-30T22:46:38.784Z</time>
      </trkpt>
      <trkpt lat="49.20807" lon="1.35282">
        <ele>14</ele>
        <time>2019-05-30T22:46:44.064Z</time>
      </trkpt>
      <trkpt lat="49.20852" lon="1.35407">
        <ele>14</ele>
        <time>2019-05-30T22:46:49.363Z</time>
      </trkpt>
      <trkpt lat="49.20879" lon="1.35489">
        <ele>14.738538742065</ele>
        <time>2019-05-30T22:46:54.674Z</time>
      </trkpt>
      <trkpt lat="49.20892" lon="1.35547">
        <ele>15.154646873474</ele>
        <time>2019-05-30T22:46:59.993Z</time>
      </trkpt>
      <trkpt lat="49.20915" lon="1.35626">
        <ele>13.827278137207</ele>
        <time>2019-05-30T22:47:05.323Z</time>
      </trkpt>
      <trkpt lat="49.20936" lon="1.35678">
        <ele>13.330752372742</ele>
        <time>2019-05-30T22:47:10.661Z</time>
      </trkpt>
      <trkpt lat="49.20994" lon="1.35848">
        <ele>14.362851142883</ele>
        <time>2019-05-30T22:47:16.024Z</time>
      </trkpt>
      <trkpt lat="49.21003" lon="1.3589">
        <ele>14</ele>
        <time>2019-05-30T22:47:21.393Z</time>
      </trkpt>
      <trkpt lat="49.21053" lon="1.36072">
        <ele>13.082301139832</ele>
        <time>2019-05-30T22:47:26.788Z</time>
      </trkpt>
      <trkpt lat="49.21062" lon="1.36121">
        <ele>13.204491615295</ele>
        <time>2019-05-30T22:47:32.190Z</time>
      </trkpt>
      <trkpt lat="49.21084" lon="1.36213">
        <ele>13.330906867981</ele>
        <time>2019-05-30T22:47:37.604Z</time>
      </trkpt>
      <trkpt lat="49.21095" lon="1.36276">
        <ele>13.055510520935</ele>
        <time>2019-05-30T22:47:43.027Z</time>
      </trkpt>
      <trkpt lat="49.21121" lon="1.36392">
        <ele>14.862239837646</ele>
        <time>2019-05-30T22:47:48.466Z</time>
      </trkpt>
      <trkpt lat="49.21124" lon="1.36419">
        <ele>14.673572540283</ele>
        <time>2019-05-30T22:47:53.909Z</time>
      </trkpt>
      <trkpt lat="49.21142" lon="1.36502">
        <ele>14.554651260376</ele>
        <time>2019-05-30T22:47:59.363Z</time>
      </trkpt>
      <trkpt lat="49.21167" lon="1.36585">
        <ele>12.924160003662</ele>
        <time>2019-05-30T22:48:04.829Z</time>
      </trkpt>
      <trkpt lat="49.21182" lon="1.36624">
        <ele>13.032141685486</ele>
        <time>2019-05-30T22:48:10.301Z</time>
      </trkpt>
      <trkpt lat="49.21219" lon="1.36709">
        <ele>13.44930267334</ele>
        <time>2019-05-30T22:48:15.786Z</time>
      </trkpt>
      <trkpt lat="49.21246" lon="1.36762">
        <ele>13.761250495911</ele>
        <time>2019-05-30T22:48:21.280Z</time>
      </trkpt>
      <trkpt lat="49.21273" lon="1.36806">
        <ele>13.965216636658</ele>
        <time>2019-05-30T22:48:26.782Z</time>
      </trkpt>
      <trkpt lat="49.21297" lon="1.36837">
        <ele>13.336917877197</ele>
        <time>2019-05-30T22:48:32.290Z</time>
      </trkpt>
      <trkpt lat="49.21365" lon="1.36899">
        <ele>11.201814651489</ele>
        <time>2019-05-30T22:48:37.814Z</time>
      </trkpt>
      <trkpt lat="49.21388" lon="1.36917">
        <ele>12.269636154175</ele>
        <time>2019-05-30T22:48:43.343Z</time>
      </trkpt>
      <trkpt lat="49.21433" lon="1.3696">
        <ele>13.985350608826</ele>
        <time>2019-05-30T22:48:48.883Z</time>
      </trkpt>
      <trkpt lat="49.21453" lon="1.36987">
        <ele>14.322141647339</ele>
        <time>2019-05-30T22:48:54.428Z</time>
      </trkpt>
      <trkpt lat="49.21502" lon="1.37081">
        <ele>15.4828748703</ele>
        <time>2019-05-30T22:48:59.989Z</time>
      </trkpt>
      <trkpt lat="49.21512" lon="1.37102">
        <ele>15.350896835327</ele>
        <time>2019-05-30T22:49:05.554Z</time>
      </trkpt>
      <trkpt lat="49.21517" lon="1.37122">
        <ele>15.170927047729</ele>
        <time>2019-05-30T22:49:11.121Z</time>
      </trkpt>
      <trkpt lat="49.21527" lon="1.37146">
        <ele>15.002955436707</ele>
        <time>2019-05-30T22:49:16.692Z</time>
      </trkpt>
      <trkpt lat="49.2157" lon="1.37222">
        <ele>15.88946056366</ele>
        <time>2019-05-30T22:49:22.276Z</time>
      </trkpt>
      <trkpt lat="49.21612" lon="1.37315">
        <ele>13.994725227356</ele>
        <time>2019-05-30T22:49:27.875Z</time>
      </trkpt>
      <trkpt lat="49.21642" lon="1.37367">
        <ele>13.370829582214</ele>
        <time>2019-05-30T22:49:33.483Z</time>
      </trkpt>
      <trkpt lat="49.21661" lon="1.37389">
        <ele>13.106873512268</ele>
        <time>2019-05-30T22:49:39.096Z</time>
      </trkpt>
      <trkpt lat="49.21681" lon="1.37421">
        <ele>12.722937583923</ele>
        <time>2019-05-30T22:49:44.715Z</time>
      </trkpt>
      <trkpt lat="49.21685" lon="1.37435">
        <ele>12.5549659729</ele>
        <time>2019-05-30T22:49:50.336Z</time>
      </trkpt>
      <trkpt lat="49.2169" lon="1.37436">
        <ele>12.542967796326</ele>
        <time>2019-05-30T22:49:55.958Z</time>
      </trkpt>
      <trkpt lat="49.21694" lon="1.3744">
        <ele>12.494976043701</ele>
        <time>2019-05-30T22:50:01.581Z</time>
      </trkpt>
      <trkpt lat="49.21703" lon="1.37455">
        <ele>12.499436378479</ele>
        <time>2019-05-30T22:50:07.206Z</time>
      </trkpt>
      <trkpt lat="49.21738" lon="1.37532">
        <ele>11.903305053711</ele>
        <time>2019-05-30T22:50:12.844Z</time>
      </trkpt>
      <trkpt lat="49.21754" lon="1.37559">
        <ele>11.771327018738</ele>
        <time>2019-05-30T22:50:18.486Z</time>
      </trkpt>
      <trkpt lat="49.21777" lon="1.37609">
        <ele>11.980067253113</ele>
        <time>2019-05-30T22:50:24.136Z</time>
      </trkpt>
      <trkpt lat="49.2179" lon="1.37628">
        <ele>12.136041641235</ele>
        <time>2019-05-30T22:50:29.790Z</time>
      </trkpt>
      <trkpt lat="49.21802" lon="1.3764">
        <ele>12.280017852783</ele>
        <time>2019-05-30T22:50:35.447Z</time>
      </trkpt>
      <trkpt lat="49.21813" lon="1.37637">
        <ele>12.411995887756</ele>
        <time>2019-05-30T22:50:41.106Z</time>
      </trkpt>
      <trkpt lat="49.21816" lon="1.37639">
        <ele>12.447989463806</ele>
        <time>2019-05-30T22:50:46.766Z</time>
      </trkpt>
      <trkpt lat="49.2182" lon="1.37649">
        <ele>12.483374595642</ele>
        <time>2019-05-30T22:50:52.427Z</time>
      </trkpt>
      <trkpt lat="49.21844" lon="1.37682">
        <ele>12.375392913818</ele>
        <time>2019-05-30T22:50:58.095Z</time>
      </trkpt>
      <trkpt lat="49.21918" lon="1.37751">
        <ele>12.435382843018</ele>
        <time>2019-05-30T22:51:03.780Z</time>
      </trkpt>
      <trkpt lat="49.21961" lon="1.37807">
        <ele>12.279409408569</ele>
        <time>2019-05-30T22:51:09.476Z</time>
      </trkpt>
      <trkpt lat="49.21979" lon="1.37826">
        <ele>12.131158828735</ele>
        <time>2019-05-30T22:51:15.177Z</time>
      </trkpt>
      <trkpt lat="49.2204" lon="1.37877">
        <ele>11.503699302673</ele>
        <time>2019-05-30T22:51:20.892Z</time>
      </trkpt>
      <trkpt lat="49.22094" lon="1.37917">
        <ele>11.228070259094</ele>
        <time>2019-05-30T22:51:26.619Z</time>
      </trkpt>
      <trkpt lat="49.22127" lon="1.37946">
        <ele>11.396644592285</ele>
        <time>2019-05-30T22:51:32.353Z</time>
      </trkpt>
      <trkpt lat="49.22202" lon="1.38002">
        <ele>10.920782089233</ele>
        <time>2019-05-30T22:51:38.104Z</time>
      </trkpt>
      <trkpt lat="49.22243" lon="1.38038">
        <ele>10.428864479065</ele>
        <time>2019-05-30T22:51:43.865Z</time>
      </trkpt>
      <trkpt lat="49.22307" lon="1.38081">
        <ele>10.534749984741</ele>
        <time>2019-05-30T22:51:49.640Z</time>
      </trkpt>
      <trkpt lat="49.22348" lon="1.38117">
        <ele>11.458596229553</ele>
        <time>2019-05-30T22:51:55.424Z</time>
      </trkpt>
      <trkpt lat="49.22378" lon="1.38151">
        <ele>11.773531913757</ele>
        <time>2019-05-30T22:52:01.216Z</time>
      </trkpt>
      <trkpt lat="49.22398" lon="1.38166">
        <ele>11.353601455688</ele>
        <time>2019-05-30T22:52:07.012Z</time>
      </trkpt>
      <trkpt lat="49.22551" lon="1.38319">
        <ele>10.635573387146</ele>
        <time>2019-05-30T22:52:12.845Z</time>
      </trkpt>
      <trkpt lat="49.22575" lon="1.38338">
        <ele>11.667401313782</ele>
        <time>2019-05-30T22:52:18.683Z</time>
      </trkpt>
      <trkpt lat="49.22597" lon="1.38367">
        <ele>12.89119720459</ele>
        <time>2019-05-30T22:52:24.527Z</time>
      </trkpt>
      <trkpt lat="49.22662" lon="1.38432">
        <ele>13.401701927185</ele>
        <time>2019-05-30T22:52:30.386Z</time>
      </trkpt>
      <trkpt lat="49.22711" lon="1.3849">
        <ele>12.794150352478</ele>
        <time>2019-05-30T22:52:36.258Z</time>
      </trkpt>
      <trkpt lat="49.22787" lon="1.38564">
        <ele>11.116494178772</ele>
        <time>2019-05-30T22:52:42.148Z</time>
      </trkpt>
      <trkpt lat="49.228" lon="1.38574">
        <ele>11.143264770508</ele>
        <time>2019-05-30T22:52:48.041Z</time>
      </trkpt>
      <trkpt lat="49.22825" lon="1.38601">
        <ele>11.119269371033</ele>
        <time>2019-05-30T22:52:53.940Z</time>
      </trkpt>
      <trkpt lat="49.22865" lon="1.38635">
        <ele>11.123473167419</ele>
        <time>2019-05-30T22:52:59.848Z</time>
      </trkpt>
      <trkpt lat="49.22959" lon="1.38724">
        <ele>11.072160720825</ele>
        <time>2019-05-30T22:53:05.778Z</time>
      </trkpt>
      <trkpt lat="49.23011" lon="1.38776">
        <ele>12.854305267334</ele>
        <time>2019-05-30T22:53:11.721Z</time>
      </trkpt>
      <trkpt lat="49.23091" lon="1.38837">
        <ele>11.763680458069</ele>
        <time>2019-05-30T22:53:17.682Z</time>
      </trkpt>
      <trkpt lat="49.23147" lon="1.38869">
        <ele>11.834655761719</ele>
        <time>2019-05-30T22:53:23.654Z</time>
      </trkpt>
      <trkpt lat="49.23176" lon="1.38882">
        <ele>12.530539512634</ele>
        <time>2019-05-30T22:53:29.633Z</time>
      </trkpt>
      <trkpt lat="49.23217" lon="1.38913">
        <ele>12.40651512146</ele>
        <time>2019-05-30T22:53:35.621Z</time>
      </trkpt>
      <trkpt lat="49.23252" lon="1.38935">
        <ele>11.410680770874</ele>
        <time>2019-05-30T22:53:41.616Z</time>
      </trkpt>
      <trkpt lat="49.23304" lon="1.38963">
        <ele>11.078992843628</ele>
        <time>2019-05-30T22:53:47.622Z</time>
      </trkpt>
      <trkpt lat="49.23315" lon="1.38981">
        <ele>11.426935195923</ele>
        <time>2019-05-30T22:53:53.632Z</time>
      </trkpt>
      <trkpt lat="49.23324" lon="1.39008">
        <ele>11.858862876892</ele>
        <time>2019-05-30T22:53:59.646Z</time>
      </trkpt>
      <trkpt lat="49.23339" lon="1.39024">
        <ele>12.230800628662</ele>
        <time>2019-05-30T22:54:05.663Z</time>
      </trkpt>
      <trkpt lat="49.23341" lon="1.39033">
        <ele>12.362778663635</ele>
        <time>2019-05-30T22:54:11.681Z</time>
      </trkpt>
      <trkpt lat="49.23349" lon="1.39189">
        <ele>11.840689659119</ele>
        <time>2019-05-30T22:54:17.720Z</time>
      </trkpt>
      <trkpt lat="49.23349" lon="1.39189">
        <ele>11.841175079346</ele>
        <time>2019-05-30T22:54:23.759Z</time>
      </trkpt>
      <trkpt lat="49.23349" lon="1.39189">
        <ele>11.840924263</ele>
        <time>2019-05-30T22:54:29.798Z</time>
      </trkpt>
      <trkpt lat="49.23368" lon="1.39312">
        <ele>13.723903656006</ele>
        <time>2019-05-30T22:54:35.854Z</time>
      </trkpt>
      <trkpt lat="49.23384" lon="1.39376">
        <ele>13.739146232605</ele>
        <time>2019-05-30T22:54:41.919Z</time>
      </trkpt>
      <trkpt lat="49.23405" lon="1.39418">
        <ele>14.198394775391</ele>
        <time>2019-05-30T22:54:47.991Z</time>
      </trkpt>
      <trkpt lat="49.23481" lon="1.39517">
        <ele>15.150468826294</ele>
        <time>2019-05-30T22:54:54.083Z</time>
      </trkpt>
      <trkpt lat="49.23516" lon="1.39569">
        <ele>14.155409812927</ele>
        <time>2019-05-30T22:55:00.184Z</time>
      </trkpt>
      <trkpt lat="49.23542" lon="1.39598">
        <ele>13.843461990356</ele>
        <time>2019-05-30T22:55:06.292Z</time>
      </trkpt>
      <trkpt lat="49.23565" lon="1.3963">
        <ele>13.567507743835</ele>
        <time>2019-05-30T22:55:12.406Z</time>
      </trkpt>
      <trkpt lat="49.23611" lon="1.39673">
        <ele>12.719040870667</ele>
        <time>2019-05-30T22:55:18.531Z</time>
      </trkpt>
      <trkpt lat="49.23623" lon="1.39694">
        <ele>12.323106765747</ele>
        <time>2019-05-30T22:55:24.659Z</time>
      </trkpt>
      <trkpt lat="49.2363" lon="1.39718">
        <ele>11.951169013977</ele>
        <time>2019-05-30T22:55:30.791Z</time>
      </trkpt>
      <trkpt lat="49.23637" lon="1.39776">
        <ele>9.3382339477539</ele>
        <time>2019-05-30T22:55:36.931Z</time>
      </trkpt>
      <trkpt lat="49.23682" lon="1.40048">
        <ele>13.470272064209</ele>
        <time>2019-05-30T22:55:43.107Z</time>
      </trkpt>
      <trkpt lat="49.23681" lon="1.40079">
        <ele>14.662996292114</ele>
        <time>2019-05-30T22:55:49.287Z</time>
      </trkpt>
      <trkpt lat="49.23673" lon="1.40112">
        <ele>16.546682357788</ele>
        <time>2019-05-30T22:55:55.472Z</time>
      </trkpt>
      <trkpt lat="49.23676" lon="1.40129">
        <ele>17.599128723145</ele>
        <time>2019-05-30T22:56:01.659Z</time>
      </trkpt>
      <trkpt lat="49.23681" lon="1.40139">
        <ele>18.199029922485</ele>
        <time>2019-05-30T22:56:07.848Z</time>
      </trkpt>
      <trkpt lat="49.237" lon="1.40143">
        <ele>18.834762573242</ele>
        <time>2019-05-30T22:56:14.041Z</time>
      </trkpt>
      <trkpt lat="49.23726" lon="1.40142">
        <ele>19.71061706543</ele>
        <time>2019-05-30T22:56:20.239Z</time>
      </trkpt>
      <trkpt lat="49.2374" lon="1.40139">
        <ele>20.034563064575</ele>
        <time>2019-05-30T22:56:26.440Z</time>
      </trkpt>
      <trkpt lat="49.23775" lon="1.40127">
        <ele>19.740789413452</ele>
        <time>2019-05-30T22:56:32.648Z</time>
      </trkpt>
      <trkpt lat="49.2382" lon="1.40107">
        <ele>21.961061477661</ele>
        <time>2019-05-30T22:56:38.865Z</time>
      </trkpt>
      <trkpt lat="49.2386" lon="1.40095">
        <ele>21.311435699463</ele>
        <time>2019-05-30T22:56:45.091Z</time>
      </trkpt>
      <trkpt lat="49.23942" lon="1.40094">
        <ele>23.910083770752</ele>
        <time>2019-05-30T22:56:51.333Z</time>
      </trkpt>
      <trkpt lat="49.24013" lon="1.401">
        <ele>24.103176116943</ele>
        <time>2019-05-30T22:56:57.589Z</time>
      </trkpt>
      <trkpt lat="49.24042" lon="1.40095">
        <ele>22.151424407959</ele>
        <time>2019-05-30T22:57:03.851Z</time>
      </trkpt>
      <trkpt lat="49.24082" lon="1.4008">
        <ele>18.802503585815</ele>
        <time>2019-05-30T22:57:10.121Z</time>
      </trkpt>
      <trkpt lat="49.24095" lon="1.40079">
        <ele>18.550546646118</ele>
        <time>2019-05-30T22:57:16.394Z</time>
      </trkpt>
      <trkpt lat="49.24108" lon="1.40084">
        <ele>18.874492645264</ele>
        <time>2019-05-30T22:57:22.670Z</time>
      </trkpt>
      <trkpt lat="49.24116" lon="1.4009">
        <ele>19.09407043457</ele>
        <time>2019-05-30T22:57:28.947Z</time>
      </trkpt>
      <trkpt lat="49.24137" lon="1.40133">
        <ele>21.457675933838</ele>
        <time>2019-05-30T22:57:35.231Z</time>
      </trkpt>
      <trkpt lat="49.24177" lon="1.40243">
        <ele>23.552501678467</ele>
        <time>2019-05-30T22:57:41.532Z</time>
      </trkpt>
      <trkpt lat="49.24198" lon="1.40288">
        <ele>21.835403442383</ele>
        <time>2019-05-30T22:57:47.840Z</time>
      </trkpt>
      <trkpt lat="49.24204" lon="1.40306">
        <ele>21.979379653931</ele>
        <time>2019-05-30T22:57:54.151Z</time>
      </trkpt>
      <trkpt lat="49.24207" lon="1.40319">
        <ele>22.10080909729</ele>
        <time>2019-05-30T22:58:00.464Z</time>
      </trkpt>
      <trkpt lat="49.24207" lon="1.40379">
        <ele>28.508140563965</ele>
        <time>2019-05-30T22:58:06.785Z</time>
      </trkpt>
      <trkpt lat="49.24211" lon="1.40404">
        <ele>30.337184906006</ele>
        <time>2019-05-30T22:58:13.109Z</time>
      </trkpt>
      <trkpt lat="49.24228" lon="1.40439">
        <ele>29.452476501465</ele>
        <time>2019-05-30T22:58:19.439Z</time>
      </trkpt>
      <trkpt lat="49.24243" lon="1.40492">
        <ele>31.570472717285</ele>
        <time>2019-05-30T22:58:25.776Z</time>
      </trkpt>
      <trkpt lat="49.24264" lon="1.40543">
        <ele>28.834928512573</ele>
        <time>2019-05-30T22:58:32.121Z</time>
      </trkpt>
      <trkpt lat="49.24279" lon="1.40589">
        <ele>26.595911026001</ele>
        <time>2019-05-30T22:58:38.473Z</time>
      </trkpt>
      <trkpt lat="49.24285" lon="1.40623">
        <ele>26.46563911438</ele>
        <time>2019-05-30T22:58:44.829Z</time>
      </trkpt>
      <trkpt lat="49.24287" lon="1.40654">
        <ele>26.897565841675</ele>
        <time>2019-05-30T22:58:51.189Z</time>
      </trkpt>
      <trkpt lat="49.24283" lon="1.40724">
        <ele>30.060583114624</ele>
        <time>2019-05-30T22:58:57.559Z</time>
      </trkpt>
      <trkpt lat="49.24284" lon="1.40748">
        <ele>31.526790618896</ele>
        <time>2019-05-30T22:59:03.932Z</time>
      </trkpt>
      <trkpt lat="49.24323" lon="1.40914">
        <ele>29.569902420044</ele>
        <time>2019-05-30T22:59:10.328Z</time>
      </trkpt>
      <trkpt lat="49.24334" lon="1.41002">
        <ele>29.954414367676</ele>
        <time>2019-05-30T22:59:16.736Z</time>
      </trkpt>
      <trkpt lat="49.24338" lon="1.41016">
        <ele>29.906421661377</ele>
        <time>2019-05-30T22:59:23.146Z</time>
      </trkpt>
      <trkpt lat="49.24339" lon="1.41053">
        <ele>33.250007629395</ele>
        <time>2019-05-30T22:59:29.561Z</time>
      </trkpt>
      <trkpt lat="49.24345" lon="1.41101">
        <ele>36.070888519287</ele>
        <time>2019-05-30T22:59:35.982Z</time>
      </trkpt>
      <trkpt lat="49.24353" lon="1.41136">
        <ele>36.226860046387</ele>
        <time>2019-05-30T22:59:42.408Z</time>
      </trkpt>
      <trkpt lat="49.24369" lon="1.41181">
        <ele>34.759574890137</ele>
        <time>2019-05-30T22:59:48.841Z</time>
      </trkpt>
      <trkpt lat="49.24423" lon="1.41295">
        <ele>30.008367538452</ele>
        <time>2019-05-30T22:59:55.292Z</time>
      </trkpt>
      <trkpt lat="49.24434" lon="1.41327">
        <ele>29.672422409058</ele>
        <time>2019-05-30T23:00:01.748Z</time>
      </trkpt>
      <trkpt lat="49.24474" lon="1.41497">
        <ele>33.58833694458</ele>
        <time>2019-05-30T23:00:08.227Z</time>
      </trkpt>
      <trkpt lat="49.24475" lon="1.4151">
        <ele>33.66032409668</ele>
        <time>2019-05-30T23:00:14.708Z</time>
      </trkpt>
      <trkpt lat="49.24485" lon="1.41546">
        <ele>33.019062042236</ele>
        <time>2019-05-30T23:00:21.194Z</time>
      </trkpt>
      <trkpt lat="49.24491" lon="1.4156">
        <ele>32.203201293945</ele>
        <time>2019-05-30T23:00:27.682Z</time>
      </trkpt>
      <trkpt lat="49.24504" lon="1.41575">
        <ele>29.048624038696</ele>
        <time>2019-05-30T23:00:34.174Z</time>
      </trkpt>
      <trkpt lat="49.24639" lon="1.41683">
        <ele>19.775850296021</ele>
        <time>2019-05-30T23:00:40.696Z</time>
      </trkpt>
      <trkpt lat="49.24642" lon="1.41685">
        <ele>19.72785949707</ele>
        <time>2019-05-30T23:00:47.219Z</time>
      </trkpt>
      <trkpt lat="49.24647" lon="1.41683">
        <ele>19.587459564209</ele>
        <time>2019-05-30T23:00:53.743Z</time>
      </trkpt>
      <trkpt lat="49.24656" lon="1.41701">
        <ele>19.583883285522</ele>
        <time>2019-05-30T23:01:00.270Z</time>
      </trkpt>
      <trkpt lat="49.24667" lon="1.41751">
        <ele>19.919826507568</ele>
        <time>2019-05-30T23:01:06.804Z</time>
      </trkpt>
      <trkpt lat="49.24677" lon="1.41904">
        <ele>20.353927612305</ele>
        <time>2019-05-30T23:01:13.358Z</time>
      </trkpt>
      <trkpt lat="49.24674" lon="1.41993">
        <ele>22.393646240234</ele>
        <time>2019-05-30T23:01:19.924Z</time>
      </trkpt>
      <trkpt lat="49.24675" lon="1.42042">
        <ele>22.969549179077</ele>
        <time>2019-05-30T23:01:26.496Z</time>
      </trkpt>
      <trkpt lat="49.24672" lon="1.42079">
        <ele>23.163747787476</ele>
        <time>2019-05-30T23:01:33.073Z</time>
      </trkpt>
      <trkpt lat="49.24673" lon="1.42216">
        <ele>25.45255279541</ele>
        <time>2019-05-30T23:01:39.668Z</time>
      </trkpt>
      <trkpt lat="49.24684" lon="1.42283">
        <ele>25.716508865356</ele>
        <time>2019-05-30T23:01:46.272Z</time>
      </trkpt>
      <trkpt lat="49.24699" lon="1.42343">
        <ele>26.331220626831</ele>
        <time>2019-05-30T23:01:52.884Z</time>
      </trkpt>
      <trkpt lat="49.24708" lon="1.4239">
        <ele>26.895126342773</ele>
        <time>2019-05-30T23:01:59.503Z</time>
      </trkpt>
      <trkpt lat="49.24726" lon="1.42459">
        <ele>27.360816955566</ele>
        <time>2019-05-30T23:02:06.131Z</time>
      </trkpt>
      <trkpt lat="49.24777" lon="1.42545">
        <ele>27.025932312012</ele>
        <time>2019-05-30T23:02:12.775Z</time>
      </trkpt>
      <trkpt lat="49.24807" lon="1.426">
        <ele>28.416730880737</ele>
        <time>2019-05-30T23:02:19.428Z</time>
      </trkpt>
      <trkpt lat="49.24823" lon="1.42636">
        <ele>29.424564361572</ele>
        <time>2019-05-30T23:02:26.087Z</time>
      </trkpt>
      <trkpt lat="49.2486" lon="1.4284">
        <ele>27.765968322754</ele>
        <time>2019-05-30T23:02:32.774Z</time>
      </trkpt>
      <trkpt lat="49.24895" lon="1.43">
        <ele>31.64001083374</ele>
        <time>2019-05-30T23:02:39.483Z</time>
      </trkpt>
      <trkpt lat="49.24966" lon="1.43235">
        <ele>38.941558837891</ele>
        <time>2019-05-30T23:02:46.226Z</time>
      </trkpt>
      <trkpt lat="49.2499" lon="1.43338">
        <ele>39.068843841553</ele>
        <time>2019-05-30T23:02:52.983Z</time>
      </trkpt>
      <trkpt lat="49.25008" lon="1.43386">
        <ele>39.710460662842</ele>
        <time>2019-05-30T23:02:59.747Z</time>
      </trkpt>
      <trkpt lat="49.25069" lon="1.43499">
        <ele>45.991996765137</ele>
        <time>2019-05-30T23:03:06.530Z</time>
      </trkpt>
      <trkpt lat="49.25078" lon="1.43519">
        <ele>47.215793609619</ele>
        <time>2019-05-30T23:03:13.316Z</time>
      </trkpt>
      <trkpt lat="49.25085" lon="1.43543">
        <ele>48.041790008545</ele>
        <time>2019-05-30T23:03:20.106Z</time>
      </trkpt>
      <trkpt lat="49.25097" lon="1.43632">
        <ele>49.40478515625</ele>
        <time>2019-05-30T23:03:26.908Z</time>
      </trkpt>
      <trkpt lat="49.2511" lon="1.43757">
        <ele>53.399620056152</ele>
        <time>2019-05-30T23:03:33.726Z</time>
      </trkpt>
      <trkpt lat="49.25114" lon="1.43822">
        <ele>56.587390899658</ele>
        <time>2019-05-30T23:03:40.553Z</time>
      </trkpt>
      <trkpt lat="49.25114" lon="1.43864">
        <ele>57.595222473145</ele>
        <time>2019-05-30T23:03:47.385Z</time>
      </trkpt>
      <trkpt lat="49.25077" lon="1.44349">
        <ele>74.625396728516</ele>
        <time>2019-05-30T23:03:54.281Z</time>
      </trkpt>
      <trkpt lat="49.25077" lon="1.44501">
        <ele>76.729690551758</ele>
        <time>2019-05-30T23:04:01.197Z</time>
      </trkpt>
      <trkpt lat="49.25078" lon="1.44524">
        <ele>76.369750976562</ele>
        <time>2019-05-30T23:04:08.116Z</time>
      </trkpt>
      <trkpt lat="49.25082" lon="1.44545">
        <ele>76.63370513916</ele>
        <time>2019-05-30T23:04:15.038Z</time>
      </trkpt>
      <trkpt lat="49.25088" lon="1.44562">
        <ele>77.377578735352</ele>
        <time>2019-05-30T23:04:21.963Z</time>
      </trkpt>
      <trkpt lat="49.25095" lon="1.44573">
        <ele>78.544158935547</ele>
        <time>2019-05-30T23:04:28.890Z</time>
      </trkpt>
      <trkpt lat="49.25107" lon="1.44585">
        <ele>80.703804016113</ele>
        <time>2019-05-30T23:04:35.820Z</time>
      </trkpt>
      <trkpt lat="49.25119" lon="1.44591">
        <ele>82.084197998047</ele>
        <time>2019-05-30T23:04:42.752Z</time>
      </trkpt>
      <trkpt lat="49.25143" lon="1.44594">
        <ele>83.621055603027</ele>
        <time>2019-05-30T23:04:49.689Z</time>
      </trkpt>
      <trkpt lat="49.25197" lon="1.44582">
        <ele>90.963829040527</ele>
        <time>2019-05-30T23:04:56.637Z</time>
      </trkpt>
      <trkpt lat="49.25214" lon="1.44582">
        <ele>93.048393249512</ele>
        <time>2019-05-30T23:05:03.588Z</time>
      </trkpt>
      <trkpt lat="49.25234" lon="1.44592">
        <ele>94.968070983887</ele>
        <time>2019-05-30T23:05:10.544Z</time>
      </trkpt>
      <trkpt lat="49.25252" lon="1.44618">
        <ele>95.064056396484</ele>
        <time>2019-05-30T23:05:17.505Z</time>
      </trkpt>
      <trkpt lat="49.25278" lon="1.44694">
        <ele>92.619552612305</ele>
        <time>2019-05-30T23:05:24.477Z</time>
      </trkpt>
      <trkpt lat="49.25298" lon="1.44725">
        <ele>93.912658691406</ele>
        <time>2019-05-30T23:05:31.454Z</time>
      </trkpt>
      <trkpt lat="49.25312" lon="1.44735">
        <ele>95.590614318848</ele>
        <time>2019-05-30T23:05:38.435Z</time>
      </trkpt>
      <trkpt lat="49.25349" lon="1.44749">
        <ele>100.56977844238</ele>
        <time>2019-05-30T23:05:45.423Z</time>
      </trkpt>
      <trkpt lat="49.25369" lon="1.44766">
        <ele>102.5139465332</ele>
        <time>2019-05-30T23:05:52.416Z</time>
      </trkpt>
      <trkpt lat="49.25388" lon="1.44789">
        <ele>104.31364440918</ele>
        <time>2019-05-30T23:05:59.414Z</time>
      </trkpt>
      <trkpt lat="49.25403" lon="1.44824">
        <ele>104.20503997803</ele>
        <time>2019-05-30T23:06:06.417Z</time>
      </trkpt>
      <trkpt lat="49.25432" lon="1.44913">
        <ele>106.65517425537</ele>
        <time>2019-05-30T23:06:13.433Z</time>
      </trkpt>
      <trkpt lat="49.25445" lon="1.44989">
        <ele>110.23095703125</ele>
        <time>2019-05-30T23:06:20.459Z</time>
      </trkpt>
      <trkpt lat="49.25445" lon="1.45033">
        <ele>113.39842987061</ele>
        <time>2019-05-30T23:06:27.491Z</time>
      </trkpt>
      <trkpt lat="49.25442" lon="1.45069">
        <ele>115.55546569824</ele>
        <time>2019-05-30T23:06:34.528Z</time>
      </trkpt>
      <trkpt lat="49.25433" lon="1.45117">
        <ele>117.96706390381</ele>
        <time>2019-05-30T23:06:41.572Z</time>
      </trkpt>
      <trkpt lat="49.2542" lon="1.45164">
        <ele>121.26451873779</ele>
        <time>2019-05-30T23:06:48.622Z</time>
      </trkpt>
      <trkpt lat="49.25379" lon="1.45291">
        <ele>126.7985458374</ele>
        <time>2019-05-30T23:06:55.691Z</time>
      </trkpt>
      <trkpt lat="49.25379" lon="1.45327">
        <ele>128.59059143066</ele>
        <time>2019-05-30T23:07:02.764Z</time>
      </trkpt>
      <trkpt lat="49.25385" lon="1.45352">
        <ele>129.13525390625</ele>
        <time>2019-05-30T23:07:09.841Z</time>
      </trkpt>
      <trkpt lat="49.25391" lon="1.45374">
        <ele>129.73515319824</ele>
        <time>2019-05-30T23:07:16.921Z</time>
      </trkpt>
      <trkpt lat="49.25409" lon="1.45414">
        <ele>130.91096496582</ele>
        <time>2019-05-30T23:07:24.007Z</time>
      </trkpt>
      <trkpt lat="49.25434" lon="1.45435">
        <ele>131.71482849121</ele>
        <time>2019-05-30T23:07:31.099Z</time>
      </trkpt>
      <trkpt lat="49.25448" lon="1.45442">
        <ele>132.07550048828</ele>
        <time>2019-05-30T23:07:38.194Z</time>
      </trkpt>
      <trkpt lat="49.25474" lon="1.4545">
        <ele>132.89135742188</ele>
        <time>2019-05-30T23:07:45.294Z</time>
      </trkpt>
      <trkpt lat="49.25545" lon="1.45463">
        <ele>134.5764465332</ele>
        <time>2019-05-30T23:07:52.409Z</time>
      </trkpt>
      <trkpt lat="49.2557" lon="1.45464">
        <ele>134.2884979248</ele>
        <time>2019-05-30T23:07:59.529Z</time>
      </trkpt>
      <trkpt lat="49.25575" lon="1.45461">
        <ele>134.19250488281</ele>
        <time>2019-05-30T23:08:06.650Z</time>
      </trkpt>
      <trkpt lat="49.25584" lon="1.45445">
        <ele>134</ele>
        <time>2019-05-30T23:08:13.774Z</time>
      </trkpt>
      <trkpt lat="49.25592" lon="1.45402">
        <ele>134</ele>
        <time>2019-05-30T23:08:20.903Z</time>
      </trkpt>
      <trkpt lat="49.25592" lon="1.45373">
        <ele>133.5048828125</ele>
        <time>2019-05-30T23:08:28.036Z</time>
      </trkpt>
      <trkpt lat="49.25581" lon="1.453">
        <ele>133.24092102051</ele>
        <time>2019-05-30T23:08:35.179Z</time>
      </trkpt>
      <trkpt lat="49.25566" lon="1.45227">
        <ele>133.25492858887</ele>
        <time>2019-05-30T23:08:42.332Z</time>
      </trkpt>
      <trkpt lat="49.25551" lon="1.45042">
        <ele>130.75590515137</ele>
        <time>2019-05-30T23:08:49.509Z</time>
      </trkpt>
      <trkpt lat="49.25532" lon="1.44897">
        <ele>127.27968597412</ele>
        <time>2019-05-30T23:08:56.706Z</time>
      </trkpt>
      <trkpt lat="49.2552" lon="1.44831">
        <ele>127.07566833496</ele>
        <time>2019-05-30T23:09:03.912Z</time>
      </trkpt>
      <trkpt lat="49.25513" lon="1.44817">
        <ele>126.23580932617</ele>
        <time>2019-05-30T23:09:11.120Z</time>
      </trkpt>
      <trkpt lat="49.25494" lon="1.44805">
        <ele>124.11051177979</ele>
        <time>2019-05-30T23:09:18.332Z</time>
      </trkpt>
      <trkpt lat="49.25483" lon="1.44788">
        <ele>123.89454650879</ele>
        <time>2019-05-30T23:09:25.547Z</time>
      </trkpt>
      <trkpt lat="49.25467" lon="1.44746">
        <ele>124.69667816162</ele>
        <time>2019-05-30T23:09:32.769Z</time>
      </trkpt>
      <trkpt lat="49.25452" lon="1.44691">
        <ele>126.06912231445</ele>
        <time>2019-05-30T23:09:39.999Z</time>
      </trkpt>
      <trkpt lat="49.2544" lon="1.44664">
        <ele>126.10950469971</ele>
        <time>2019-05-30T23:09:47.233Z</time>
      </trkpt>
      <trkpt lat="49.25437" lon="1.44663">
        <ele>125.69610595703</ele>
        <time>2019-05-30T23:09:54.467Z</time>
      </trkpt>
    </trkseg>
  </trk>
</gpx>